PWSweather.com
Personal Weather Stations
Station Observations
EI4HQ
Cork Harbour, CobhIE

Cork HarbourCobhIE

Lat: 51.85, Lon: -8.29

Elevation: 252

Station Type: Davis Vantage Pro2

http://www.corkharbourweather.ie

High Low Average
Temperature 51.6°F10.9°C 43.5°F6.4°C 47.1°F8.4°C
Dew Point 48.6°F9.2°C 41.9°F5.5°C 45.0°F7.2°C
Winds 8.0 mph 12.9 kmh 1.0 mph 1.6 kmh 4.0 mph SE6.4 kmh SE
Wind Gusts 13.0 mph20.9 kmh 3.0 mph4.8 kmh 8.0 mph12.9 kmh
Humidity 96% 85% 93%
Pressure 29.80 in1009.1 mb 29.66 in1004.4 mb -
Precipitation 0.04 in1.0 mm - -
Hour Temp Dew Point Humidity Winds Wind Gusts Pressure Precip Precip Rate Daily Precip Total
12:00 AM 45.3°F7.4°C 43.7°F6.5°C 94% 4.0 mph NE6.4 kmh NE 8.0 mph12.9 kmh 29.77 in1008.1 mb 0.00 in0.0 mm 0.00 in0.0 mm 0.00 in0.0 mm
12:03 AM 45.3°F7.4°C 43.3°F6.3°C 93% 3.0 mph NE4.8 kmh NE 7.0 mph11.3 kmh 29.77 in1008.1 mb 0.00 in0.0 mm 0.00 in0.0 mm 0.00 in0.0 mm
12:06 AM 45.3°F7.4°C 43.3°F6.3°C 93% 3.0 mph NE4.8 kmh NE 6.0 mph9.7 kmh 29.77 in1008.1 mb 0.00 in0.0 mm 0.00 in0.0 mm 0.00 in0.0 mm
12:09 AM 45.3°F7.4°C 43.3°F6.3°C 93% 3.0 mph NE4.8 kmh NE 7.0 mph11.3 kmh 29.77 in1008.1 mb 0.00 in0.0 mm 0.00 in0.0 mm 0.00 in0.0 mm
12:12 AM 45.3°F7.4°C 43.3°F6.3°C 93% 4.0 mph NE6.4 kmh NE 7.0 mph11.3 kmh 29.77 in1008.1 mb 0.00 in0.0 mm 0.00 in0.0 mm 0.00 in0.0 mm
12:15 AM 45.3°F7.4°C 43.3°F6.3°C 93% 4.0 mph NE6.4 kmh NE 7.0 mph11.3 kmh 29.77 in1008.1 mb 0.00 in0.0 mm 0.00 in0.0 mm 0.00 in0.0 mm
12:18 AM 45.3°F7.4°C 43.3°F6.3°C 93% 4.0 mph NE6.4 kmh NE 7.0 mph11.3 kmh 29.77 in1008.1 mb 0.00 in0.0 mm 0.00 in0.0 mm 0.00 in0.0 mm
12:21 AM 45.1°F7.3°C 43.3°F6.3°C 93% 3.0 mph NE4.8 kmh NE 6.0 mph9.7 kmh 29.77 in1008.1 mb 0.00 in0.0 mm 0.00 in0.0 mm 0.00 in0.0 mm
12:24 AM 45.1°F7.3°C 43.3°F6.3°C 93% 3.0 mph NE4.8 kmh NE 6.0 mph9.7 kmh 29.77 in1008.1 mb 0.00 in0.0 mm 0.00 in0.0 mm 0.00 in0.0 mm
12:27 AM 45.1°F7.3°C 43.3°F6.3°C 93% 3.0 mph NNE4.8 kmh NNE 8.0 mph12.9 kmh 29.77 in1008.1 mb 0.00 in0.0 mm 0.00 in0.0 mm 0.00 in0.0 mm
12:30 AM 45.1°F7.3°C 43.2°F6.2°C 93% 4.0 mph NNE6.4 kmh NNE 8.0 mph12.9 kmh 29.77 in1008.1 mb 0.00 in0.0 mm 0.00 in0.0 mm 0.00 in0.0 mm
12:33 AM 45.1°F7.3°C 43.2°F6.2°C 93% 4.0 mph NNE6.4 kmh NNE 8.0 mph12.9 kmh 29.77 in1008.1 mb 0.00 in0.0 mm 0.00 in0.0 mm 0.00 in0.0 mm
12:36 AM 45.1°F7.3°C 43.2°F6.2°C 93% 4.0 mph N6.4 kmh N 6.0 mph9.7 kmh 29.77 in1008.1 mb 0.00 in0.0 mm 0.00 in0.0 mm 0.00 in0.0 mm
12:39 AM 45.0°F7.2°C 43.2°F6.2°C 93% 4.0 mph N6.4 kmh N 6.0 mph9.7 kmh 29.77 in1008.1 mb 0.00 in0.0 mm 0.00 in0.0 mm 0.00 in0.0 mm
12:42 AM 45.0°F7.2°C 43.0°F6.1°C 93% 5.0 mph N8.0 kmh N 9.0 mph14.5 kmh 29.77 in1008.1 mb 0.00 in0.0 mm 0.00 in0.0 mm 0.00 in0.0 mm
12:45 AM 44.8°F7.1°C 42.8°F6.0°C 93% 5.0 mph N8.0 kmh N 9.0 mph14.5 kmh 29.77 in1008.1 mb 0.00 in0.0 mm 0.00 in0.0 mm 0.00 in0.0 mm
12:48 AM 44.6°F7.0°C 42.6°F5.9°C 93% 5.0 mph N8.0 kmh N 9.0 mph14.5 kmh 29.77 in1008.1 mb 0.00 in0.0 mm 0.00 in0.0 mm 0.00 in0.0 mm
12:51 AM 44.6°F7.0°C 42.6°F5.9°C 93% 5.0 mph N8.0 kmh N 9.0 mph14.5 kmh 29.77 in1008.1 mb 0.00 in0.0 mm 0.00 in0.0 mm 0.00 in0.0 mm
12:54 AM 44.4°F6.9°C 42.6°F5.9°C 93% 6.0 mph N9.7 kmh N 9.0 mph14.5 kmh 29.76 in1007.8 mb 0.00 in0.0 mm 0.00 in0.0 mm 0.00 in0.0 mm
12:57 AM 44.4°F6.9°C 42.6°F5.9°C 93% 7.0 mph NNW11.3 kmh NNW 10.0 mph16.1 kmh 29.76 in1007.8 mb 0.00 in0.0 mm 0.00 in0.0 mm 0.00 in0.0 mm
01:00 AM 44.4°F6.9°C 42.6°F5.9°C 93% 7.0 mph NNW11.3 kmh NNW 10.0 mph16.1 kmh 29.76 in1007.8 mb 0.00 in0.0 mm 0.00 in0.0 mm 0.00 in0.0 mm
01:03 AM 44.4°F6.9°C 42.4°F5.8°C 93% 6.0 mph NNW9.7 kmh NNW 10.0 mph16.1 kmh 29.77 in1008.1 mb 0.00 in0.0 mm 0.00 in0.0 mm 0.00 in0.0 mm
01:06 AM 44.4°F6.9°C 42.8°F6.0°C 94% 6.0 mph NNW9.7 kmh NNW 9.0 mph14.5 kmh 29.77 in1008.1 mb 0.00 in0.0 mm 0.00 in0.0 mm 0.00 in0.0 mm
01:09 AM 44.4°F6.9°C 42.8°F6.0°C 94% 6.0 mph NNW9.7 kmh NNW 9.0 mph14.5 kmh 29.77 in1008.1 mb 0.00 in0.0 mm 0.00 in0.0 mm 0.00 in0.0 mm
01:12 AM 44.4°F6.9°C 42.8°F6.0°C 94% 5.0 mph NNW8.0 kmh NNW 9.0 mph14.5 kmh 29.77 in1008.1 mb 0.00 in0.0 mm 0.00 in0.0 mm 0.00 in0.0 mm
01:15 AM 44.4°F6.9°C 42.8°F6.0°C 94% 5.0 mph NNW8.0 kmh NNW 9.0 mph14.5 kmh 29.77 in1008.1 mb 0.00 in0.0 mm 0.00 in0.0 mm 0.00 in0.0 mm
01:18 AM 44.4°F6.9°C 42.8°F6.0°C 94% 5.0 mph NNW8.0 kmh NNW 9.0 mph14.5 kmh 29.77 in1008.1 mb 0.00 in0.0 mm 0.00 in0.0 mm 0.00 in0.0 mm
01:21 AM 44.4°F6.9°C 42.8°F6.0°C 94% 5.0 mph NNW8.0 kmh NNW 8.0 mph12.9 kmh 29.77 in1008.1 mb 0.00 in0.0 mm 0.00 in0.0 mm 0.00 in0.0 mm
01:24 AM 44.4°F6.9°C 42.8°F6.0°C 94% 6.0 mph NNW9.7 kmh NNW 9.0 mph14.5 kmh 29.77 in1008.1 mb 0.00 in0.0 mm 0.00 in0.0 mm 0.00 in0.0 mm
01:27 AM 44.6°F7.0°C 43.0°F6.1°C 94% 6.0 mph NNW9.7 kmh NNW 10.0 mph16.1 kmh 29.77 in1008.1 mb 0.00 in0.0 mm 0.00 in0.0 mm 0.00 in0.0 mm
01:30 AM 44.6°F7.0°C 43.0°F6.1°C 94% 7.0 mph NNW11.3 kmh NNW 10.0 mph16.1 kmh 29.77 in1008.1 mb 0.00 in0.0 mm 0.00 in0.0 mm 0.00 in0.0 mm
01:33 AM 44.6°F7.0°C 43.0°F6.1°C 94% 7.0 mph N11.3 kmh N 10.0 mph16.1 kmh 29.77 in1008.1 mb 0.00 in0.0 mm 0.00 in0.0 mm 0.00 in0.0 mm
01:36 AM 44.6°F7.0°C 43.0°F6.1°C 94% 6.0 mph N9.7 kmh N 10.0 mph16.1 kmh 29.76 in1007.8 mb 0.00 in0.0 mm 0.00 in0.0 mm 0.00 in0.0 mm
01:39 AM 44.8°F7.1°C 43.2°F6.2°C 94% 6.0 mph N9.7 kmh N 10.0 mph16.1 kmh 29.76 in1007.8 mb 0.00 in0.0 mm 0.00 in0.0 mm 0.00 in0.0 mm
01:42 AM 44.8°F7.1°C 43.2°F6.2°C 94% 6.0 mph N9.7 kmh N 10.0 mph16.1 kmh 29.76 in1007.8 mb 0.00 in0.0 mm 0.00 in0.0 mm 0.00 in0.0 mm
01:45 AM 44.8°F7.1°C 43.2°F6.2°C 94% 7.0 mph N11.3 kmh N 10.0 mph16.1 kmh 29.76 in1007.8 mb 0.00 in0.0 mm 0.00 in0.0 mm 0.00 in0.0 mm
01:48 AM 44.8°F7.1°C 43.2°F6.2°C 94% 8.0 mph NNW12.9 kmh NNW 12.0 mph19.3 kmh 29.75 in1007.5 mb 0.00 in0.0 mm 0.00 in0.0 mm 0.00 in0.0 mm
01:51 AM 44.8°F7.1°C 43.2°F6.2°C 94% 8.0 mph NNW12.9 kmh NNW 12.0 mph19.3 kmh 29.75 in1007.5 mb 0.00 in0.0 mm 0.00 in0.0 mm 0.00 in0.0 mm
01:54 AM 44.6°F7.0°C 43.0°F6.1°C 94% 7.0 mph N11.3 kmh N 12.0 mph19.3 kmh 29.76 in1007.8 mb 0.00 in0.0 mm 0.00 in0.0 mm 0.00 in0.0 mm
01:57 AM 44.6°F7.0°C 43.0°F6.1°C 94% 5.0 mph N8.0 kmh N 11.0 mph17.7 kmh 29.76 in1007.8 mb 0.00 in0.0 mm 0.00 in0.0 mm 0.00 in0.0 mm
02:00 AM 44.6°F7.0°C 43.0°F6.1°C 94% 5.0 mph N8.0 kmh N 9.0 mph14.5 kmh 29.76 in1007.8 mb 0.00 in0.0 mm 0.00 in0.0 mm 0.00 in0.0 mm
02:03 AM 44.4°F6.9°C 42.8°F6.0°C 94% 5.0 mph N8.0 kmh N 10.0 mph16.1 kmh 29.76 in1007.8 mb 0.00 in0.0 mm 0.00 in0.0 mm 0.00 in0.0 mm
02:06 AM 44.4°F6.9°C 42.8°F6.0°C 94% 6.0 mph N9.7 kmh N 10.0 mph16.1 kmh 29.76 in1007.8 mb 0.00 in0.0 mm 0.00 in0.0 mm 0.00 in0.0 mm
02:09 AM 44.2°F6.8°C 42.6°F5.9°C 94% 6.0 mph N9.7 kmh N 10.0 mph16.1 kmh 29.76 in1007.8 mb 0.00 in0.0 mm 0.00 in0.0 mm 0.00 in0.0 mm
02:12 AM 44.2°F6.8°C 42.6°F5.9°C 94% 6.0 mph N9.7 kmh N 10.0 mph16.1 kmh 29.76 in1007.8 mb 0.00 in0.0 mm 0.00 in0.0 mm 0.00 in0.0 mm
02:15 AM 44.2°F6.8°C 42.6°F5.9°C 94% 6.0 mph N9.7 kmh N 12.0 mph19.3 kmh 29.76 in1007.8 mb 0.00 in0.0 mm 0.00 in0.0 mm 0.00 in0.0 mm
02:18 AM 44.2°F6.8°C 42.6°F5.9°C 94% 6.0 mph N9.7 kmh N 12.0 mph19.3 kmh 29.76 in1007.8 mb 0.00 in0.0 mm 0.00 in0.0 mm 0.00 in0.0 mm
02:21 AM 44.1°F6.7°C 42.4°F5.8°C 94% 6.0 mph N9.7 kmh N 12.0 mph19.3 kmh 29.77 in1008.1 mb 0.00 in0.0 mm 0.00 in0.0 mm 0.00 in0.0 mm
02:24 AM 44.1°F6.7°C 42.4°F5.8°C 94% 6.0 mph N9.7 kmh N 10.0 mph16.1 kmh 29.76 in1007.8 mb 0.00 in0.0 mm 0.00 in0.0 mm 0.00 in0.0 mm
02:27 AM 44.1°F6.7°C 42.4°F5.8°C 94% 6.0 mph N9.7 kmh N 9.0 mph14.5 kmh 29.76 in1007.8 mb 0.00 in0.0 mm 0.00 in0.0 mm 0.00 in0.0 mm
02:30 AM 44.1°F6.7°C 42.4°F5.8°C 94% 7.0 mph N11.3 kmh N 10.0 mph16.1 kmh 29.76 in1007.8 mb 0.00 in0.0 mm 0.00 in0.0 mm 0.00 in0.0 mm
02:33 AM 44.1°F6.7°C 42.4°F5.8°C 94% 7.0 mph N11.3 kmh N 12.0 mph19.3 kmh 29.76 in1007.8 mb 0.00 in0.0 mm 0.00 in0.0 mm 0.00 in0.0 mm
02:36 AM 44.1°F6.7°C 42.4°F5.8°C 94% 8.0 mph N12.9 kmh N 12.0 mph19.3 kmh 29.76 in1007.8 mb 0.00 in0.0 mm 0.00 in0.0 mm 0.00 in0.0 mm
02:39 AM 44.1°F6.7°C 42.4°F5.8°C 94% 8.0 mph N12.9 kmh N 12.0 mph19.3 kmh 29.76 in1007.8 mb 0.00 in0.0 mm 0.00 in0.0 mm 0.00 in0.0 mm
02:42 AM 43.9°F6.6°C 42.3°F5.7°C 94% 7.0 mph N11.3 kmh N 11.0 mph17.7 kmh 29.76 in1007.8 mb 0.00 in0.0 mm 0.00 in0.0 mm 0.00 in0.0 mm
02:45 AM 43.9°F6.6°C 42.3°F5.7°C 94% 7.0 mph N11.3 kmh N 11.0 mph17.7 kmh 29.76 in1007.8 mb 0.00 in0.0 mm 0.00 in0.0 mm 0.00 in0.0 mm
02:48 AM 43.7°F6.5°C 42.1°F5.6°C 94% 7.0 mph N11.3 kmh N 11.0 mph17.7 kmh 29.76 in1007.8 mb 0.00 in0.0 mm 0.00 in0.0 mm 0.00 in0.0 mm
02:51 AM 43.7°F6.5°C 42.1°F5.6°C 94% 6.0 mph N9.7 kmh N 10.0 mph16.1 kmh 29.76 in1007.8 mb 0.00 in0.0 mm 0.00 in0.0 mm 0.00 in0.0 mm
02:54 AM 43.7°F6.5°C 42.1°F5.6°C 94% 6.0 mph N9.7 kmh N 10.0 mph16.1 kmh 29.76 in1007.8 mb 0.00 in0.0 mm 0.00 in0.0 mm 0.00 in0.0 mm
02:57 AM 43.5°F6.4°C 41.9°F5.5°C 94% 6.0 mph N9.7 kmh N 10.0 mph16.1 kmh 29.76 in1007.8 mb 0.00 in0.0 mm 0.00 in0.0 mm 0.00 in0.0 mm
03:00 AM 43.5°F6.4°C 41.9°F5.5°C 94% 6.0 mph NNE9.7 kmh NNE 11.0 mph17.7 kmh 29.76 in1007.8 mb 0.00 in0.0 mm 0.00 in0.0 mm 0.00 in0.0 mm
03:03 AM 43.5°F6.4°C 41.9°F5.5°C 94% 6.0 mph NE9.7 kmh NE 11.0 mph17.7 kmh 29.76 in1007.8 mb 0.00 in0.0 mm 0.00 in0.0 mm 0.00 in0.0 mm
03:06 AM 43.5°F6.4°C 41.9°F5.5°C 94% 6.0 mph NE9.7 kmh NE 11.0 mph17.7 kmh 29.76 in1007.8 mb 0.00 in0.0 mm 0.00 in0.0 mm 0.00 in0.0 mm
03:09 AM 43.7°F6.5°C 42.1°F5.6°C 94% 6.0 mph NE9.7 kmh NE 13.0 mph20.9 kmh 29.76 in1007.8 mb 0.00 in0.0 mm 0.00 in0.0 mm 0.00 in0.0 mm
03:12 AM 43.7°F6.5°C 42.1°F5.6°C 94% 6.0 mph NE9.7 kmh NE 13.0 mph20.9 kmh 29.76 in1007.8 mb 0.00 in0.0 mm 0.00 in0.0 mm 0.00 in0.0 mm
03:15 AM 43.7°F6.5°C 42.1°F5.6°C 94% 6.0 mph NNE9.7 kmh NNE 13.0 mph20.9 kmh 29.76 in1007.8 mb 0.00 in0.0 mm 0.00 in0.0 mm 0.00 in0.0 mm
03:18 AM 43.9°F6.6°C 42.3°F5.7°C 94% 6.0 mph NNE9.7 kmh NNE 11.0 mph17.7 kmh 29.76 in1007.8 mb 0.00 in0.0 mm 0.00 in0.0 mm 0.00 in0.0 mm
03:21 AM 43.9°F6.6°C 42.3°F5.7°C 94% 6.0 mph NNE9.7 kmh NNE 10.0 mph16.1 kmh 29.76 in1007.8 mb 0.00 in0.0 mm 0.00 in0.0 mm 0.00 in0.0 mm
03:24 AM 43.9°F6.6°C 42.3°F5.7°C 94% 6.0 mph NNE9.7 kmh NNE 10.0 mph16.1 kmh 29.76 in1007.8 mb 0.00 in0.0 mm 0.00 in0.0 mm 0.00 in0.0 mm
03:27 AM 43.9°F6.6°C 42.3°F5.7°C 94% 6.0 mph NNE9.7 kmh NNE 10.0 mph16.1 kmh 29.76 in1007.8 mb 0.00 in0.0 mm 0.00 in0.0 mm 0.00 in0.0 mm
03:30 AM 43.9°F6.6°C 42.3°F5.7°C 94% 5.0 mph NNE8.0 kmh NNE 10.0 mph16.1 kmh 29.76 in1007.8 mb 0.00 in0.0 mm 0.00 in0.0 mm 0.00 in0.0 mm
03:33 AM 43.9°F6.6°C 42.3°F5.7°C 94% 5.0 mph NNE8.0 kmh NNE 10.0 mph16.1 kmh 29.76 in1007.8 mb 0.00 in0.0 mm 0.00 in0.0 mm 0.00 in0.0 mm
03:36 AM 43.9°F6.6°C 42.3°F5.7°C 94% 5.0 mph NNE8.0 kmh NNE 10.0 mph16.1 kmh 29.76 in1007.8 mb 0.00 in0.0 mm 0.00 in0.0 mm 0.00 in0.0 mm
03:39 AM 43.9°F6.6°C 42.3°F5.7°C 94% 5.0 mph NNE8.0 kmh NNE 9.0 mph14.5 kmh 29.76 in1007.8 mb 0.00 in0.0 mm 0.00 in0.0 mm 0.00 in0.0 mm
03:42 AM 43.9°F6.6°C 42.3°F5.7°C 94% 5.0 mph NNE8.0 kmh NNE 9.0 mph14.5 kmh 29.76 in1007.8 mb 0.00 in0.0 mm 0.00 in0.0 mm 0.00 in0.0 mm
03:45 AM 43.9°F6.6°C 42.6°F5.9°C 95% 5.0 mph NNE8.0 kmh NNE 9.0 mph14.5 kmh 29.76 in1007.8 mb 0.00 in0.0 mm 0.00 in0.0 mm 0.00 in0.0 mm
03:48 AM 43.9°F6.6°C 42.6°F5.9°C 95% 4.0 mph NNE6.4 kmh NNE 9.0 mph14.5 kmh 29.76 in1007.8 mb 0.00 in0.0 mm 0.00 in0.0 mm 0.00 in0.0 mm
03:51 AM 43.9°F6.6°C 42.6°F5.9°C 95% 4.0 mph NNE6.4 kmh NNE 9.0 mph14.5 kmh 29.76 in1007.8 mb 0.00 in0.0 mm 0.00 in0.0 mm 0.00 in0.0 mm
03:54 AM 43.9°F6.6°C 42.6°F5.9°C 95% 4.0 mph NNE6.4 kmh NNE 7.0 mph11.3 kmh 29.76 in1007.8 mb 0.00 in0.0 mm 0.00 in0.0 mm 0.00 in0.0 mm
03:57 AM 44.1°F6.7°C 42.6°F5.9°C 95% 4.0 mph NNE6.4 kmh NNE 7.0 mph11.3 kmh 29.76 in1007.8 mb 0.00 in0.0 mm 0.00 in0.0 mm 0.00 in0.0 mm
04:00 AM 44.1°F6.7°C 42.6°F5.9°C 95% 4.0 mph NE6.4 kmh NE 6.0 mph9.7 kmh 29.76 in1007.8 mb 0.00 in0.0 mm 0.00 in0.0 mm 0.00 in0.0 mm
04:03 AM 44.1°F6.7°C 42.6°F5.9°C 95% 4.0 mph NE6.4 kmh NE 6.0 mph9.7 kmh 29.77 in1008.1 mb 0.00 in0.0 mm 0.00 in0.0 mm 0.00 in0.0 mm
04:06 AM 44.1°F6.7°C 42.6°F5.9°C 95% 4.0 mph NE6.4 kmh NE 6.0 mph9.7 kmh 29.77 in1008.1 mb 0.00 in0.0 mm 0.00 in0.0 mm 0.00 in0.0 mm
04:09 AM 44.1°F6.7°C 42.6°F5.9°C 95% 4.0 mph NE6.4 kmh NE 6.0 mph9.7 kmh 29.76 in1007.8 mb 0.00 in0.0 mm 0.00 in0.0 mm 0.00 in0.0 mm
04:12 AM 44.1°F6.7°C 42.6°F5.9°C 95% 4.0 mph NE6.4 kmh NE 6.0 mph9.7 kmh 29.76 in1007.8 mb 0.00 in0.0 mm 0.00 in0.0 mm 0.00 in0.0 mm
04:15 AM 43.9°F6.6°C 42.6°F5.9°C 95% 3.0 mph NNE4.8 kmh NNE 6.0 mph9.7 kmh 29.77 in1008.1 mb 0.00 in0.0 mm 0.00 in0.0 mm 0.00 in0.0 mm
04:18 AM 43.9°F6.6°C 42.6°F5.9°C 95% 3.0 mph NNE4.8 kmh NNE 6.0 mph9.7 kmh 29.77 in1008.1 mb 0.00 in0.0 mm 0.00 in0.0 mm 0.00 in0.0 mm
04:21 AM 43.9°F6.6°C 42.3°F5.7°C 94% 3.0 mph NNE4.8 kmh NNE 6.0 mph9.7 kmh 29.77 in1008.1 mb 0.00 in0.0 mm 0.00 in0.0 mm 0.00 in0.0 mm
04:24 AM 43.7°F6.5°C 42.1°F5.6°C 94% 4.0 mph NNE6.4 kmh NNE 8.0 mph12.9 kmh 29.77 in1008.1 mb 0.00 in0.0 mm 0.00 in0.0 mm 0.00 in0.0 mm
04:27 AM 43.7°F6.5°C 42.4°F5.8°C 95% 4.0 mph NNE6.4 kmh NNE 9.0 mph14.5 kmh 29.77 in1008.1 mb 0.00 in0.0 mm 0.00 in0.0 mm 0.00 in0.0 mm
04:30 AM 43.7°F6.5°C 42.4°F5.8°C 95% 4.0 mph NNE6.4 kmh NNE 9.0 mph14.5 kmh 29.77 in1008.1 mb 0.00 in0.0 mm 0.00 in0.0 mm 0.00 in0.0 mm
04:33 AM 43.7°F6.5°C 42.4°F5.8°C 95% 5.0 mph NNE8.0 kmh NNE 9.0 mph14.5 kmh 29.76 in1007.8 mb 0.00 in0.0 mm 0.00 in0.0 mm 0.00 in0.0 mm
04:36 AM 43.7°F6.5°C 42.4°F5.8°C 95% 5.0 mph NNE8.0 kmh NNE 10.0 mph16.1 kmh 29.76 in1007.8 mb 0.00 in0.0 mm 0.00 in0.0 mm 0.00 in0.0 mm
04:39 AM 43.7°F6.5°C 42.4°F5.8°C 95% 6.0 mph N9.7 kmh N 12.0 mph19.3 kmh 29.76 in1007.8 mb 0.00 in0.0 mm 0.00 in0.0 mm 0.00 in0.0 mm
04:42 AM 43.7°F6.5°C 42.4°F5.8°C 95% 7.0 mph N11.3 kmh N 12.0 mph19.3 kmh 29.77 in1008.1 mb 0.00 in0.0 mm 0.00 in0.0 mm 0.00 in0.0 mm
04:45 AM 43.5°F6.4°C 42.3°F5.7°C 95% 7.0 mph N11.3 kmh N 12.0 mph19.3 kmh 29.77 in1008.1 mb 0.00 in0.0 mm 0.00 in0.0 mm 0.00 in0.0 mm
04:48 AM 43.5°F6.4°C 42.3°F5.7°C 95% 7.0 mph N11.3 kmh N 12.0 mph19.3 kmh 29.77 in1008.1 mb 0.00 in0.0 mm 0.00 in0.0 mm 0.00 in0.0 mm
04:51 AM 43.5°F6.4°C 42.3°F5.7°C 95% 7.0 mph N11.3 kmh N 10.0 mph16.1 kmh 29.77 in1008.1 mb 0.00 in0.0 mm 0.00 in0.0 mm 0.00 in0.0 mm
04:54 AM 43.5°F6.4°C 42.3°F5.7°C 95% 7.0 mph N11.3 kmh N 10.0 mph16.1 kmh 29.77 in1008.1 mb 0.00 in0.0 mm 0.00 in0.0 mm 0.00 in0.0 mm
04:57 AM 43.7°F6.5°C 42.4°F5.8°C 95% 7.0 mph N11.3 kmh N 10.0 mph16.1 kmh 29.77 in1008.1 mb 0.00 in0.0 mm 0.00 in0.0 mm 0.00 in0.0 mm
05:00 AM 43.7°F6.5°C 42.4°F5.8°C 95% 7.0 mph N11.3 kmh N 10.0 mph16.1 kmh 29.77 in1008.1 mb 0.00 in0.0 mm 0.00 in0.0 mm 0.00 in0.0 mm
05:03 AM 43.7°F6.5°C 42.4°F5.8°C 95% 8.0 mph N12.9 kmh N 10.0 mph16.1 kmh 29.77 in1008.1 mb 0.00 in0.0 mm 0.00 in0.0 mm 0.00 in0.0 mm
05:06 AM 43.7°F6.5°C 42.4°F5.8°C 95% 8.0 mph N12.9 kmh N 10.0 mph16.1 kmh 29.77 in1008.1 mb 0.00 in0.0 mm 0.00 in0.0 mm 0.00 in0.0 mm
05:09 AM 43.5°F6.4°C 42.3°F5.7°C 95% 8.0 mph N12.9 kmh N 10.0 mph16.1 kmh 29.77 in1008.1 mb 0.00 in0.0 mm 0.00 in0.0 mm 0.00 in0.0 mm
05:12 AM 43.5°F6.4°C 41.9°F5.5°C 94% 8.0 mph NNW12.9 kmh NNW 10.0 mph16.1 kmh 29.77 in1008.1 mb 0.00 in0.0 mm 0.00 in0.0 mm 0.00 in0.0 mm
05:15 AM 43.5°F6.4°C 42.3°F5.7°C 95% 7.0 mph NNW11.3 kmh NNW 10.0 mph16.1 kmh 29.77 in1008.1 mb 0.00 in0.0 mm 0.00 in0.0 mm 0.00 in0.0 mm
05:18 AM 43.5°F6.4°C 42.1°F5.6°C 95% 7.0 mph NNW11.3 kmh NNW 9.0 mph14.5 kmh 29.77 in1008.1 mb 0.00 in0.0 mm 0.00 in0.0 mm 0.00 in0.0 mm
05:21 AM 43.5°F6.4°C 42.1°F5.6°C 95% 7.0 mph NNW11.3 kmh NNW 9.0 mph14.5 kmh 29.77 in1008.1 mb 0.00 in0.0 mm 0.00 in0.0 mm 0.00 in0.0 mm
05:24 AM 43.5°F6.4°C 42.1°F5.6°C 95% 7.0 mph NNW11.3 kmh NNW 9.0 mph14.5 kmh 29.77 in1008.1 mb 0.00 in0.0 mm 0.00 in0.0 mm 0.00 in0.0 mm
05:27 AM 43.5°F6.4°C 42.1°F5.6°C 95% 7.0 mph NNW11.3 kmh NNW 9.0 mph14.5 kmh 29.77 in1008.1 mb 0.00 in0.0 mm 0.00 in0.0 mm 0.00 in0.0 mm
05:30 AM 43.5°F6.4°C 42.1°F5.6°C 95% 8.0 mph NNW12.9 kmh NNW 10.0 mph16.1 kmh 29.77 in1008.1 mb 0.00 in0.0 mm 0.00 in0.0 mm 0.00 in0.0 mm
05:33 AM 43.5°F6.4°C 42.3°F5.7°C 95% 8.0 mph NNW12.9 kmh NNW 10.0 mph16.1 kmh 29.77 in1008.1 mb 0.00 in0.0 mm 0.00 in0.0 mm 0.00 in0.0 mm
05:36 AM 43.5°F6.4°C 42.3°F5.7°C 95% 8.0 mph NNW12.9 kmh NNW 10.0 mph16.1 kmh 29.77 in1008.1 mb 0.00 in0.0 mm 0.00 in0.0 mm 0.00 in0.0 mm
05:39 AM 43.7°F6.5°C 42.4°F5.8°C 95% 7.0 mph NNW11.3 kmh NNW 10.0 mph16.1 kmh 29.77 in1008.1 mb 0.00 in0.0 mm 0.00 in0.0 mm 0.00 in0.0 mm
05:42 AM 43.9°F6.6°C 42.4°F5.8°C 95% 7.0 mph NNW11.3 kmh NNW 10.0 mph16.1 kmh 29.77 in1008.1 mb 0.00 in0.0 mm 0.00 in0.0 mm 0.00 in0.0 mm
05:45 AM 43.9°F6.6°C 42.6°F5.9°C 95% 7.0 mph NNW11.3 kmh NNW 10.0 mph16.1 kmh 29.77 in1008.1 mb 0.00 in0.0 mm 0.00 in0.0 mm 0.00 in0.0 mm
05:48 AM 44.1°F6.7°C 42.6°F5.9°C 95% 7.0 mph NNW11.3 kmh NNW 10.0 mph16.1 kmh 29.77 in1008.1 mb 0.00 in0.0 mm 0.00 in0.0 mm 0.00 in0.0 mm
05:51 AM 44.1°F6.7°C 42.8°F6.0°C 95% 7.0 mph NNW11.3 kmh NNW 10.0 mph16.1 kmh 29.77 in1008.1 mb 0.00 in0.0 mm 0.00 in0.0 mm 0.00 in0.0 mm
05:54 AM 44.1°F6.7°C 42.8°F6.0°C 95% 7.0 mph NNW11.3 kmh NNW 9.0 mph14.5 kmh 29.77 in1008.1 mb 0.00 in0.0 mm 0.00 in0.0 mm 0.00 in0.0 mm
05:57 AM 44.1°F6.7°C 42.8°F6.0°C 95% 6.0 mph NNW9.7 kmh NNW 9.0 mph14.5 kmh 29.77 in1008.1 mb 0.00 in0.0 mm 0.00 in0.0 mm 0.00 in0.0 mm
06:00 AM 44.2°F6.8°C 42.8°F6.0°C 95% 6.0 mph NNW9.7 kmh NNW 9.0 mph14.5 kmh 29.77 in1008.1 mb 0.00 in0.0 mm 0.00 in0.0 mm 0.00 in0.0 mm
06:03 AM 44.2°F6.8°C 43.0°F6.1°C 95% 6.0 mph N9.7 kmh N 9.0 mph14.5 kmh 29.77 in1008.1 mb 0.00 in0.0 mm 0.00 in0.0 mm 0.00 in0.0 mm
06:06 AM 44.4°F6.9°C 43.0°F6.1°C 95% 6.0 mph N9.7 kmh N 10.0 mph16.1 kmh 29.77 in1008.1 mb 0.00 in0.0 mm 0.00 in0.0 mm 0.00 in0.0 mm
06:09 AM 44.4°F6.9°C 43.0°F6.1°C 95% 6.0 mph N9.7 kmh N 10.0 mph16.1 kmh 29.77 in1008.1 mb 0.00 in0.0 mm 0.00 in0.0 mm 0.00 in0.0 mm
06:12 AM 44.4°F6.9°C 43.2°F6.2°C 95% 6.0 mph N9.7 kmh N 10.0 mph16.1 kmh 29.77 in1008.1 mb 0.00 in0.0 mm 0.00 in0.0 mm 0.00 in0.0 mm
06:15 AM 44.6°F7.0°C 43.3°F6.3°C 95% 6.0 mph N9.7 kmh N 10.0 mph16.1 kmh 29.77 in1008.1 mb 0.00 in0.0 mm 0.00 in0.0 mm 0.00 in0.0 mm
06:18 AM 44.8°F7.1°C 43.3°F6.3°C 95% 6.0 mph N9.7 kmh N 9.0 mph14.5 kmh 29.77 in1008.1 mb 0.00 in0.0 mm 0.00 in0.0 mm 0.00 in0.0 mm
06:21 AM 44.8°F7.1°C 43.3°F6.3°C 95% 7.0 mph N11.3 kmh N 9.0 mph14.5 kmh 29.77 in1008.1 mb 0.00 in0.0 mm 0.00 in0.0 mm 0.00 in0.0 mm
06:24 AM 44.8°F7.1°C 43.5°F6.4°C 95% 7.0 mph N11.3 kmh N 9.0 mph14.5 kmh 29.77 in1008.1 mb 0.00 in0.0 mm 0.00 in0.0 mm 0.00 in0.0 mm
06:27 AM 44.8°F7.1°C 43.5°F6.4°C 95% 6.0 mph N9.7 kmh N 9.0 mph14.5 kmh 29.77 in1008.1 mb 0.00 in0.0 mm 0.00 in0.0 mm 0.00 in0.0 mm
06:30 AM 44.8°F7.1°C 43.5°F6.4°C 95% 6.0 mph N9.7 kmh N 9.0 mph14.5 kmh 29.77 in1008.1 mb 0.00 in0.0 mm 0.00 in0.0 mm 0.00 in0.0 mm
06:33 AM 45.0°F7.2°C 43.5°F6.4°C 95% 6.0 mph N9.7 kmh N 9.0 mph14.5 kmh 29.77 in1008.1 mb 0.00 in0.0 mm 0.00 in0.0 mm 0.00 in0.0 mm
06:36 AM 45.0°F7.2°C 43.5°F6.4°C 95% 6.0 mph N9.7 kmh N 9.0 mph14.5 kmh 29.78 in1008.5 mb 0.00 in0.0 mm 0.00 in0.0 mm 0.00 in0.0 mm
06:39 AM 45.0°F7.2°C 43.7°F6.5°C 95% 5.0 mph N8.0 kmh N 9.0 mph14.5 kmh 29.77 in1008.1 mb 0.00 in0.0 mm 0.00 in0.0 mm 0.00 in0.0 mm
06:42 AM 45.0°F7.2°C 43.7°F6.5°C 95% 5.0 mph N8.0 kmh N 8.0 mph12.9 kmh 29.78 in1008.5 mb 0.00 in0.0 mm 0.00 in0.0 mm 0.00 in0.0 mm
06:45 AM 45.1°F7.3°C 43.7°F6.5°C 95% 4.0 mph N6.4 kmh N 7.0 mph11.3 kmh 29.77 in1008.1 mb 0.00 in0.0 mm 0.00 in0.0 mm 0.00 in0.0 mm
06:48 AM 45.1°F7.3°C 43.7°F6.5°C 95% 4.0 mph N6.4 kmh N 6.0 mph9.7 kmh 29.77 in1008.1 mb 0.00 in0.0 mm 0.00 in0.0 mm 0.00 in0.0 mm
06:51 AM 45.1°F7.3°C 43.7°F6.5°C 95% 5.0 mph N8.0 kmh N 6.0 mph9.7 kmh 29.77 in1008.1 mb 0.00 in0.0 mm 0.00 in0.0 mm 0.00 in0.0 mm
06:54 AM 45.1°F7.3°C 43.9°F6.6°C 95% 4.0 mph N6.4 kmh N 6.0 mph9.7 kmh 29.78 in1008.5 mb 0.00 in0.0 mm 0.00 in0.0 mm 0.00 in0.0 mm
06:57 AM 45.3°F7.4°C 43.9°F6.6°C 95% 4.0 mph N6.4 kmh N 6.0 mph9.7 kmh 29.78 in1008.5 mb 0.00 in0.0 mm 0.00 in0.0 mm 0.00 in0.0 mm
07:00 AM 45.3°F7.4°C 43.9°F6.6°C 95% 4.0 mph N6.4 kmh N 8.0 mph12.9 kmh 29.78 in1008.5 mb 0.00 in0.0 mm 0.00 in0.0 mm 0.00 in0.0 mm
07:03 AM 45.3°F7.4°C 44.1°F6.7°C 95% 5.0 mph N8.0 kmh N 8.0 mph12.9 kmh 29.78 in1008.5 mb 0.00 in0.0 mm 0.00 in0.0 mm 0.00 in0.0 mm
07:06 AM 45.5°F7.5°C 44.2°F6.8°C 95% 5.0 mph N8.0 kmh N 8.0 mph12.9 kmh 29.78 in1008.5 mb 0.00 in0.0 mm 0.00 in0.0 mm 0.00 in0.0 mm
07:09 AM 45.5°F7.5°C 44.2°F6.8°C 95% 5.0 mph N8.0 kmh N 8.0 mph12.9 kmh 29.78 in1008.5 mb 0.00 in0.0 mm 0.00 in0.0 mm 0.00 in0.0 mm
07:12 AM 45.5°F7.5°C 44.2°F6.8°C 95% 5.0 mph NNW8.0 kmh NNW 8.0 mph12.9 kmh 29.78 in1008.5 mb 0.00 in0.0 mm 0.00 in0.0 mm 0.00 in0.0 mm
07:15 AM 45.7°F7.6°C 44.2°F6.8°C 95% 5.0 mph NNW8.0 kmh NNW 8.0 mph12.9 kmh 29.78 in1008.5 mb 0.00 in0.0 mm 0.00 in0.0 mm 0.00 in0.0 mm
07:18 AM 45.7°F7.6°C 44.2°F6.8°C 95% 5.0 mph NNW8.0 kmh NNW 8.0 mph12.9 kmh 29.78 in1008.5 mb 0.00 in0.0 mm 0.00 in0.0 mm 0.00 in0.0 mm
07:21 AM 45.7°F7.6°C 44.4°F6.9°C 95% 6.0 mph NNW9.7 kmh NNW 8.0 mph12.9 kmh 29.77 in1008.1 mb 0.00 in0.0 mm 0.00 in0.0 mm 0.00 in0.0 mm
07:24 AM 45.9°F7.7°C 44.4°F6.9°C 95% 6.0 mph NNW9.7 kmh NNW 8.0 mph12.9 kmh 29.77 in1008.1 mb 0.00 in0.0 mm 0.00 in0.0 mm 0.00 in0.0 mm
07:27 AM 45.9°F7.7°C 44.4°F6.9°C 95% 6.0 mph NNW9.7 kmh NNW 9.0 mph14.5 kmh 29.78 in1008.5 mb 0.00 in0.0 mm 0.00 in0.0 mm 0.00 in0.0 mm
07:30 AM 45.9°F7.7°C 44.2°F6.8°C 94% 6.0 mph NNW9.7 kmh NNW 9.0 mph14.5 kmh 29.78 in1008.5 mb 0.00 in0.0 mm 0.00 in0.0 mm 0.00 in0.0 mm
07:33 AM 45.9°F7.7°C 44.2°F6.8°C 94% 6.0 mph NNW9.7 kmh NNW 9.0 mph14.5 kmh 29.78 in1008.5 mb 0.00 in0.0 mm 0.00 in0.0 mm 0.00 in0.0 mm
07:36 AM 45.9°F7.7°C 44.2°F6.8°C 94% 6.0 mph N9.7 kmh N 9.0 mph14.5 kmh 29.78 in1008.5 mb 0.00 in0.0 mm 0.00 in0.0 mm 0.00 in0.0 mm
07:39 AM 45.9°F7.7°C 44.2°F6.8°C 94% 6.0 mph N9.7 kmh N 8.0 mph12.9 kmh 29.77 in1008.1 mb 0.00 in0.0 mm 0.00 in0.0 mm 0.00 in0.0 mm
07:42 AM 46.0°F7.8°C 44.4°F6.9°C 94% 6.0 mph N9.7 kmh N 8.0 mph12.9 kmh 29.77 in1008.1 mb 0.00 in0.0 mm 0.00 in0.0 mm 0.00 in0.0 mm
07:45 AM 46.0°F7.8°C 44.4°F6.9°C 94% 6.0 mph N9.7 kmh N 8.0 mph12.9 kmh 29.78 in1008.5 mb 0.00 in0.0 mm 0.00 in0.0 mm 0.00 in0.0 mm
07:48 AM 46.2°F7.9°C 44.8°F7.1°C 95% 6.0 mph N9.7 kmh N 8.0 mph12.9 kmh 29.78 in1008.5 mb 0.00 in0.0 mm 0.00 in0.0 mm 0.00 in0.0 mm
07:51 AM 46.2°F7.9°C 44.6°F7.0°C 94% 6.0 mph N9.7 kmh N 8.0 mph12.9 kmh 29.78 in1008.5 mb 0.00 in0.0 mm 0.00 in0.0 mm 0.00 in0.0 mm
07:54 AM 46.6°F8.1°C 44.8°F7.1°C 94% 5.0 mph N8.0 kmh N 8.0 mph12.9 kmh 29.78 in1008.5 mb 0.00 in0.0 mm 0.00 in0.0 mm 0.00 in0.0 mm
07:57 AM 46.8°F8.2°C 45.3°F7.4°C 95% 5.0 mph N8.0 kmh N 8.0 mph12.9 kmh 29.77 in1008.1 mb 0.00 in0.0 mm 0.00 in0.0 mm 0.00 in0.0 mm
08:00 AM 46.9°F8.3°C 45.3°F7.4°C 94% 5.0 mph N8.0 kmh N 10.0 mph16.1 kmh 29.78 in1008.5 mb 0.00 in0.0 mm 0.00 in0.0 mm 0.00 in0.0 mm
08:03 AM 47.1°F8.4°C 45.5°F7.5°C 94% 6.0 mph NNW9.7 kmh NNW 10.0 mph16.1 kmh 29.78 in1008.5 mb 0.00 in0.0 mm 0.00 in0.0 mm 0.00 in0.0 mm
08:06 AM 47.1°F8.4°C 45.5°F7.5°C 94% 6.0 mph NNW9.7 kmh NNW 10.0 mph16.1 kmh 29.78 in1008.5 mb 0.00 in0.0 mm 0.00 in0.0 mm 0.00 in0.0 mm
08:09 AM 47.3°F8.5°C 45.7°F7.6°C 94% 5.0 mph NNW8.0 kmh NNW 9.0 mph14.5 kmh 29.78 in1008.5 mb 0.00 in0.0 mm 0.00 in0.0 mm 0.00 in0.0 mm
08:12 AM 47.3°F8.5°C 45.7°F7.6°C 94% 5.0 mph NNW8.0 kmh NNW 9.0 mph14.5 kmh 29.78 in1008.5 mb 0.00 in0.0 mm 0.00 in0.0 mm 0.00 in0.0 mm
08:15 AM 47.3°F8.5°C 45.3°F7.4°C 93% 5.0 mph N8.0 kmh N 8.0 mph12.9 kmh 29.79 in1008.8 mb 0.00 in0.0 mm 0.00 in0.0 mm 0.00 in0.0 mm
08:18 AM 47.3°F8.5°C 45.3°F7.4°C 93% 5.0 mph N8.0 kmh N 9.0 mph14.5 kmh 29.79 in1008.8 mb 0.00 in0.0 mm 0.00 in0.0 mm 0.00 in0.0 mm
08:21 AM 47.5°F8.6°C 45.5°F7.5°C 93% 6.0 mph N9.7 kmh N 9.0 mph14.5 kmh 29.78 in1008.5 mb 0.00 in0.0 mm 0.00 in0.0 mm 0.00 in0.0 mm
08:24 AM 47.5°F8.6°C 45.5°F7.5°C 93% 5.0 mph N8.0 kmh N 9.0 mph14.5 kmh 29.79 in1008.8 mb 0.00 in0.0 mm 0.00 in0.0 mm 0.00 in0.0 mm
08:27 AM 47.5°F8.6°C 45.5°F7.5°C 93% 5.0 mph N8.0 kmh N 9.0 mph14.5 kmh 29.79 in1008.8 mb 0.00 in0.0 mm 0.00 in0.0 mm 0.00 in0.0 mm
08:30 AM 47.7°F8.7°C 45.7°F7.6°C 93% 4.0 mph N6.4 kmh N 8.0 mph12.9 kmh 29.78 in1008.5 mb 0.00 in0.0 mm 0.00 in0.0 mm 0.00 in0.0 mm
08:33 AM 47.7°F8.7°C 45.7°F7.6°C 93% 4.0 mph N6.4 kmh N 5.0 mph8.0 kmh 29.78 in1008.5 mb 0.00 in0.0 mm 0.00 in0.0 mm 0.00 in0.0 mm
08:36 AM 47.7°F8.7°C 45.7°F7.6°C 93% 4.0 mph N6.4 kmh N 8.0 mph12.9 kmh 29.78 in1008.5 mb 0.00 in0.0 mm 0.00 in0.0 mm 0.00 in0.0 mm
08:39 AM 47.7°F8.7°C 45.7°F7.6°C 93% 3.0 mph N4.8 kmh N 8.0 mph12.9 kmh 29.78 in1008.5 mb 0.00 in0.0 mm 0.00 in0.0 mm 0.00 in0.0 mm
08:42 AM 47.7°F8.7°C 45.7°F7.6°C 93% 3.0 mph N4.8 kmh N 8.0 mph12.9 kmh 29.79 in1008.8 mb 0.00 in0.0 mm 0.00 in0.0 mm 0.00 in0.0 mm
08:45 AM 47.7°F8.7°C 45.9°F7.7°C 93% 3.0 mph N4.8 kmh N 8.0 mph12.9 kmh 29.79 in1008.8 mb 0.00 in0.0 mm 0.00 in0.0 mm 0.00 in0.0 mm
08:48 AM 47.7°F8.7°C 45.9°F7.7°C 93% 3.0 mph NNE4.8 kmh NNE 8.0 mph12.9 kmh 29.79 in1008.8 mb 0.00 in0.0 mm 0.00 in0.0 mm 0.00 in0.0 mm
08:51 AM 47.7°F8.7°C 45.5°F7.5°C 92% 4.0 mph NNE6.4 kmh NNE 8.0 mph12.9 kmh 29.79 in1008.8 mb 0.00 in0.0 mm 0.00 in0.0 mm 0.00 in0.0 mm
08:54 AM 47.8°F8.8°C 45.5°F7.5°C 92% 4.0 mph NE6.4 kmh NE 8.0 mph12.9 kmh 29.79 in1008.8 mb 0.00 in0.0 mm 0.00 in0.0 mm 0.00 in0.0 mm
08:57 AM 47.8°F8.8°C 45.5°F7.5°C 92% 4.0 mph NE6.4 kmh NE 7.0 mph11.3 kmh 29.79 in1008.8 mb 0.00 in0.0 mm 0.00 in0.0 mm 0.00 in0.0 mm
09:00 AM 47.8°F8.8°C 45.5°F7.5°C 92% 4.0 mph NE6.4 kmh NE 7.0 mph11.3 kmh 29.79 in1008.8 mb 0.00 in0.0 mm 0.00 in0.0 mm 0.00 in0.0 mm
09:03 AM 47.8°F8.8°C 45.5°F7.5°C 92% 4.0 mph NE6.4 kmh NE 8.0 mph12.9 kmh 29.79 in1008.8 mb 0.00 in0.0 mm 0.00 in0.0 mm 0.00 in0.0 mm
09:06 AM 47.8°F8.8°C 45.3°F7.4°C 91% 4.0 mph NE6.4 kmh NE 8.0 mph12.9 kmh 29.79 in1008.8 mb 0.00 in0.0 mm 0.00 in0.0 mm 0.00 in0.0 mm
09:09 AM 48.0°F8.9°C 45.5°F7.5°C 91% 4.0 mph NE6.4 kmh NE 8.0 mph12.9 kmh 29.79 in1008.8 mb 0.00 in0.0 mm 0.00 in0.0 mm 0.00 in0.0 mm
09:12 AM 48.0°F8.9°C 45.9°F7.7°C 92% 4.0 mph NE6.4 kmh NE 8.0 mph12.9 kmh 29.79 in1008.8 mb 0.00 in0.0 mm 0.00 in0.0 mm 0.00 in0.0 mm
09:15 AM 48.0°F8.9°C 45.7°F7.6°C 91% 4.0 mph NE6.4 kmh NE 8.0 mph12.9 kmh 29.79 in1008.8 mb 0.00 in0.0 mm 0.00 in0.0 mm 0.00 in0.0 mm
09:18 AM 48.0°F8.9°C 45.7°F7.6°C 91% 4.0 mph NE6.4 kmh NE 8.0 mph12.9 kmh 29.79 in1008.8 mb 0.00 in0.0 mm 0.00 in0.0 mm 0.00 in0.0 mm
09:21 AM 48.2°F9.0°C 45.7°F7.6°C 91% 4.0 mph NE6.4 kmh NE 8.0 mph12.9 kmh 29.79 in1008.8 mb 0.00 in0.0 mm 0.00 in0.0 mm 0.00 in0.0 mm
09:24 AM 48.2°F9.0°C 45.7°F7.6°C 91% 3.0 mph NE4.8 kmh NE 7.0 mph11.3 kmh 29.80 in1009.1 mb 0.00 in0.0 mm 0.00 in0.0 mm 0.00 in0.0 mm
09:27 AM 48.0°F8.9°C 45.3°F7.4°C 90% 3.0 mph NE4.8 kmh NE 7.0 mph11.3 kmh 29.79 in1008.8 mb 0.00 in0.0 mm 0.00 in0.0 mm 0.00 in0.0 mm
09:30 AM 48.2°F9.0°C 45.3°F7.4°C 90% 2.0 mph NE3.2 kmh NE 7.0 mph11.3 kmh 29.79 in1008.8 mb 0.00 in0.0 mm 0.00 in0.0 mm 0.00 in0.0 mm
09:33 AM 48.4°F9.1°C 45.9°F7.7°C 91% 2.0 mph NE3.2 kmh NE 7.0 mph11.3 kmh 29.79 in1008.8 mb 0.00 in0.0 mm 0.00 in0.0 mm 0.00 in0.0 mm
09:36 AM 48.6°F9.2°C 46.0°F7.8°C 91% 3.0 mph NE4.8 kmh NE 7.0 mph11.3 kmh 29.79 in1008.8 mb 0.00 in0.0 mm 0.00 in0.0 mm 0.00 in0.0 mm
09:39 AM 48.6°F9.2°C 46.0°F7.8°C 91% 3.0 mph NE4.8 kmh NE 6.0 mph9.7 kmh 29.79 in1008.8 mb 0.00 in0.0 mm 0.00 in0.0 mm 0.00 in0.0 mm
09:42 AM 48.7°F9.3°C 45.9°F7.7°C 90% 3.0 mph NE4.8 kmh NE 6.0 mph9.7 kmh 29.78 in1008.5 mb 0.00 in0.0 mm 0.00 in0.0 mm 0.00 in0.0 mm
09:45 AM 48.7°F9.3°C 45.9°F7.7°C 90% 3.0 mph NE4.8 kmh NE 5.0 mph8.0 kmh 29.78 in1008.5 mb 0.00 in0.0 mm 0.00 in0.0 mm 0.00 in0.0 mm
09:48 AM 48.7°F9.3°C 45.9°F7.7°C 90% 3.0 mph NE4.8 kmh NE 6.0 mph9.7 kmh 29.78 in1008.5 mb 0.00 in0.0 mm 0.00 in0.0 mm 0.00 in0.0 mm
09:51 AM 48.7°F9.3°C 45.7°F7.6°C 89% 3.0 mph NE4.8 kmh NE 11.0 mph17.7 kmh 29.78 in1008.5 mb 0.00 in0.0 mm 0.00 in0.0 mm 0.00 in0.0 mm
09:54 AM 48.7°F9.3°C 45.7°F7.6°C 89% 4.0 mph NE6.4 kmh NE 11.0 mph17.7 kmh 29.78 in1008.5 mb 0.00 in0.0 mm 0.00 in0.0 mm 0.00 in0.0 mm
09:57 AM 48.7°F9.3°C 45.7°F7.6°C 89% 4.0 mph NE6.4 kmh NE 11.0 mph17.7 kmh 29.78 in1008.5 mb 0.00 in0.0 mm 0.00 in0.0 mm 0.00 in0.0 mm
10:00 AM 48.9°F9.4°C 45.9°F7.7°C 89% 3.0 mph NNE4.8 kmh NNE 6.0 mph9.7 kmh 29.78 in1008.5 mb 0.00 in0.0 mm 0.00 in0.0 mm 0.00 in0.0 mm
10:03 AM 48.9°F9.4°C 45.9°F7.7°C 89% 3.0 mph NNE4.8 kmh NNE 7.0 mph11.3 kmh 29.78 in1008.5 mb 0.00 in0.0 mm 0.00 in0.0 mm 0.00 in0.0 mm
10:06 AM 49.3°F9.6°C 46.0°F7.8°C 89% 3.0 mph NNE4.8 kmh NNE 7.0 mph11.3 kmh 29.78 in1008.5 mb 0.00 in0.0 mm 0.00 in0.0 mm 0.00 in0.0 mm
10:09 AM 49.3°F9.6°C 46.2°F7.9°C 89% 3.0 mph NNE4.8 kmh NNE 8.0 mph12.9 kmh 29.78 in1008.5 mb 0.00 in0.0 mm 0.00 in0.0 mm 0.00 in0.0 mm
10:12 AM 49.5°F9.7°C 46.2°F7.9°C 89% 4.0 mph NNE6.4 kmh NNE 8.0 mph12.9 kmh 29.78 in1008.5 mb 0.00 in0.0 mm 0.00 in0.0 mm 0.00 in0.0 mm
10:15 AM 49.5°F9.7°C 46.4°F8.0°C 89% 4.0 mph NNE6.4 kmh NNE 8.0 mph12.9 kmh 29.78 in1008.5 mb 0.00 in0.0 mm 0.00 in0.0 mm 0.00 in0.0 mm
10:18 AM 49.6°F9.8°C 46.2°F7.9°C 88% 4.0 mph NNE6.4 kmh NNE 8.0 mph12.9 kmh 29.78 in1008.5 mb 0.00 in0.0 mm 0.00 in0.0 mm 0.00 in0.0 mm
10:21 AM 49.8°F9.9°C 46.4°F8.0°C 88% 4.0 mph NE6.4 kmh NE 7.0 mph11.3 kmh 29.78 in1008.5 mb 0.00 in0.0 mm 0.00 in0.0 mm 0.00 in0.0 mm
10:24 AM 50.0°F10.0°C 46.6°F8.1°C 88% 4.0 mph NNE6.4 kmh NNE 7.0 mph11.3 kmh 29.78 in1008.5 mb 0.00 in0.0 mm 0.00 in0.0 mm 0.00 in0.0 mm
10:27 AM 50.0°F10.0°C 46.6°F8.1°C 88% 3.0 mph NNE4.8 kmh NNE 7.0 mph11.3 kmh 29.78 in1008.5 mb 0.00 in0.0 mm 0.00 in0.0 mm 0.00 in0.0 mm
10:30 AM 50.0°F10.0°C 46.6°F8.1°C 88% 2.0 mph NNE3.2 kmh NNE 6.0 mph9.7 kmh 29.78 in1008.5 mb 0.00 in0.0 mm 0.00 in0.0 mm 0.00 in0.0 mm
10:33 AM 50.4°F10.2°C 46.8°F8.2°C 87% 2.0 mph NNE3.2 kmh NNE 6.0 mph9.7 kmh 29.77 in1008.1 mb 0.00 in0.0 mm 0.00 in0.0 mm 0.00 in0.0 mm
10:36 AM 50.5°F10.3°C 46.9°F8.3°C 87% 2.0 mph NNE3.2 kmh NNE 6.0 mph9.7 kmh 29.77 in1008.1 mb 0.00 in0.0 mm 0.00 in0.0 mm 0.00 in0.0 mm
10:39 AM 50.7°F10.4°C 47.1°F8.4°C 87% 3.0 mph N4.8 kmh N 6.0 mph9.7 kmh 29.78 in1008.5 mb 0.00 in0.0 mm 0.00 in0.0 mm 0.00 in0.0 mm
10:42 AM 50.9°F10.5°C 46.9°F8.3°C 86% 3.0 mph N4.8 kmh N 6.0 mph9.7 kmh 29.78 in1008.5 mb 0.00 in0.0 mm 0.00 in0.0 mm 0.00 in0.0 mm
10:45 AM 51.1°F10.6°C 46.9°F8.3°C 86% 3.0 mph N4.8 kmh N 5.0 mph8.0 kmh 29.78 in1008.5 mb 0.00 in0.0 mm 0.00 in0.0 mm 0.00 in0.0 mm
10:48 AM 51.1°F10.6°C 46.9°F8.3°C 86% 3.0 mph N4.8 kmh N 6.0 mph9.7 kmh 29.78 in1008.5 mb 0.00 in0.0 mm 0.00 in0.0 mm 0.00 in0.0 mm
10:51 AM 50.9°F10.5°C 46.9°F8.3°C 86% 4.0 mph NNE6.4 kmh NNE 6.0 mph9.7 kmh 29.78 in1008.5 mb 0.00 in0.0 mm 0.00 in0.0 mm 0.00 in0.0 mm
10:54 AM 50.9°F10.5°C 46.9°F8.3°C 86% 4.0 mph N6.4 kmh N 8.0 mph12.9 kmh 29.77 in1008.1 mb 0.00 in0.0 mm 0.00 in0.0 mm 0.00 in0.0 mm
10:57 AM 51.1°F10.6°C 46.9°F8.3°C 86% 4.0 mph N6.4 kmh N 8.0 mph12.9 kmh 29.77 in1008.1 mb 0.00 in0.0 mm 0.00 in0.0 mm 0.00 in0.0 mm
11:00 AM 51.1°F10.6°C 46.9°F8.3°C 86% 3.0 mph N4.8 kmh N 8.0 mph12.9 kmh 29.77 in1008.1 mb 0.00 in0.0 mm 0.00 in0.0 mm 0.00 in0.0 mm
11:03 AM 51.1°F10.6°C 46.9°F8.3°C 86% 4.0 mph N6.4 kmh N 8.0 mph12.9 kmh 29.77 in1008.1 mb 0.00 in0.0 mm 0.00 in0.0 mm 0.00 in0.0 mm
11:06 AM 51.1°F10.6°C 47.1°F8.4°C 86% 4.0 mph N6.4 kmh N 8.0 mph12.9 kmh 29.77 in1008.1 mb 0.00 in0.0 mm 0.00 in0.0 mm 0.00 in0.0 mm
11:09 AM 51.1°F10.6°C 46.8°F8.2°C 85% 4.0 mph N6.4 kmh N 8.0 mph12.9 kmh 29.77 in1008.1 mb 0.00 in0.0 mm 0.00 in0.0 mm 0.00 in0.0 mm
11:12 AM 51.1°F10.6°C 46.8°F8.2°C 85% 5.0 mph N8.0 kmh N 8.0 mph12.9 kmh 29.77 in1008.1 mb 0.00 in0.0 mm 0.00 in0.0 mm 0.00 in0.0 mm
11:15 AM 51.1°F10.6°C 46.8°F8.2°C 85% 5.0 mph N8.0 kmh N 8.0 mph12.9 kmh 29.77 in1008.1 mb 0.00 in0.0 mm 0.00 in0.0 mm 0.00 in0.0 mm
11:18 AM 51.3°F10.7°C 46.8°F8.2°C 85% 5.0 mph N8.0 kmh N 9.0 mph14.5 kmh 29.77 in1008.1 mb 0.00 in0.0 mm 0.00 in0.0 mm 0.00 in0.0 mm
11:21 AM 51.3°F10.7°C 46.8°F8.2°C 85% 4.0 mph N6.4 kmh N 9.0 mph14.5 kmh 29.77 in1008.1 mb 0.00 in0.0 mm 0.00 in0.0 mm 0.00 in0.0 mm
11:24 AM 51.3°F10.7°C 46.8°F8.2°C 85% 3.0 mph N4.8 kmh N 9.0 mph14.5 kmh 29.77 in1008.1 mb 0.00 in0.0 mm 0.00 in0.0 mm 0.00 in0.0 mm
11:27 AM 51.3°F10.7°C 46.8°F8.2°C 85% 3.0 mph NNE4.8 kmh NNE 9.0 mph14.5 kmh 29.77 in1008.1 mb 0.00 in0.0 mm 0.00 in0.0 mm 0.00 in0.0 mm
11:30 AM 51.3°F10.7°C 46.8°F8.2°C 85% 3.0 mph NE4.8 kmh NE 6.0 mph9.7 kmh 29.77 in1008.1 mb 0.00 in0.0 mm 0.00 in0.0 mm 0.00 in0.0 mm
11:33 AM 51.3°F10.7°C 46.9°F8.3°C 85% 3.0 mph NE4.8 kmh NE 5.0 mph8.0 kmh 29.77 in1008.1 mb 0.00 in0.0 mm 0.00 in0.0 mm 0.00 in0.0 mm
11:36 AM 51.4°F10.8°C 47.1°F8.4°C 85% 3.0 mph NNE4.8 kmh NNE 5.0 mph8.0 kmh 29.77 in1008.1 mb 0.00 in0.0 mm 0.00 in0.0 mm 0.00 in0.0 mm
11:39 AM 51.4°F10.8°C 47.1°F8.4°C 85% 3.0 mph NE4.8 kmh NE 5.0 mph8.0 kmh 29.77 in1008.1 mb 0.00 in0.0 mm 0.00 in0.0 mm 0.00 in0.0 mm
11:42 AM 51.4°F10.8°C 47.1°F8.4°C 85% 3.0 mph NE4.8 kmh NE 5.0 mph8.0 kmh 29.77 in1008.1 mb 0.00 in0.0 mm 0.00 in0.0 mm 0.00 in0.0 mm
11:45 AM 51.6°F10.9°C 47.3°F8.5°C 85% 2.0 mph E3.2 kmh E 6.0 mph9.7 kmh 29.77 in1008.1 mb 0.00 in0.0 mm 0.00 in0.0 mm 0.00 in0.0 mm
11:48 AM 51.6°F10.9°C 47.3°F8.5°C 85% 2.0 mph E3.2 kmh E 6.0 mph9.7 kmh 29.77 in1008.1 mb 0.00 in0.0 mm 0.00 in0.0 mm 0.00 in0.0 mm
11:51 AM 51.6°F10.9°C 47.3°F8.5°C 85% 2.0 mph ESE3.2 kmh ESE 6.0 mph9.7 kmh 29.77 in1008.1 mb 0.00 in0.0 mm 0.00 in0.0 mm 0.00 in0.0 mm
11:54 AM 51.6°F10.9°C 47.3°F8.5°C 85% 2.0 mph SE3.2 kmh SE 6.0 mph9.7 kmh 29.77 in1008.1 mb 0.00 in0.0 mm 0.00 in0.0 mm 0.00 in0.0 mm
11:57 AM 51.6°F10.9°C 47.3°F8.5°C 85% 2.0 mph SE3.2 kmh SE 5.0 mph8.0 kmh 29.77 in1008.1 mb 0.00 in0.0 mm 0.00 in0.0 mm 0.00 in0.0 mm
12:00 PM 51.4°F10.8°C 47.1°F8.4°C 85% 2.0 mph E3.2 kmh E 4.0 mph6.4 kmh 29.77 in1008.1 mb 0.00 in0.0 mm 0.00 in0.0 mm 0.00 in0.0 mm
12:03 PM 51.4°F10.8°C 47.1°F8.4°C 85% 2.0 mph E3.2 kmh E 4.0 mph6.4 kmh 29.77 in1008.1 mb 0.00 in0.0 mm 0.00 in0.0 mm 0.00 in0.0 mm
12:06 PM 51.3°F10.7°C 46.8°F8.2°C 85% 2.0 mph ENE3.2 kmh ENE 4.0 mph6.4 kmh 29.77 in1008.1 mb 0.00 in0.0 mm 0.00 in0.0 mm 0.00 in0.0 mm
12:09 PM 51.3°F10.7°C 46.8°F8.2°C 85% 2.0 mph ENE3.2 kmh ENE 3.0 mph4.8 kmh 29.77 in1008.1 mb 0.00 in0.0 mm 0.00 in0.0 mm 0.00 in0.0 mm
12:12 PM 51.1°F10.6°C 46.8°F8.2°C 85% 1.0 mph ENE1.6 kmh ENE 3.0 mph4.8 kmh 29.77 in1008.1 mb 0.00 in0.0 mm 0.00 in0.0 mm 0.00 in0.0 mm
12:15 PM 51.1°F10.6°C 47.1°F8.4°C 86% 2.0 mph E3.2 kmh E 6.0 mph9.7 kmh 29.77 in1008.1 mb 0.00 in0.0 mm 0.00 in0.0 mm 0.00 in0.0 mm
12:18 PM 50.9°F10.5°C 46.9°F8.3°C 86% 3.0 mph E4.8 kmh E 10.0 mph16.1 kmh 29.77 in1008.1 mb 0.00 in0.0 mm 0.00 in0.0 mm 0.00 in0.0 mm
12:21 PM 50.7°F10.4°C 46.9°F8.3°C 87% 5.0 mph E8.0 kmh E 11.0 mph17.7 kmh 29.77 in1008.1 mb 0.00 in0.0 mm 0.00 in0.0 mm 0.00 in0.0 mm
12:24 PM 50.4°F10.2°C 46.6°F8.1°C 87% 6.0 mph E9.7 kmh E 11.0 mph17.7 kmh 29.77 in1008.1 mb 0.00 in0.0 mm 0.00 in0.0 mm 0.00 in0.0 mm
12:27 PM 50.0°F10.0°C 46.2°F7.9°C 87% 6.0 mph E9.7 kmh E 11.0 mph17.7 kmh 29.77 in1008.1 mb 0.00 in0.0 mm 0.00 in0.0 mm 0.00 in0.0 mm
12:30 PM 49.8°F9.9°C 46.4°F8.0°C 88% 6.0 mph E9.7 kmh E 11.0 mph17.7 kmh 29.77 in1008.1 mb 0.00 in0.0 mm 0.00 in0.0 mm 0.00 in0.0 mm
12:33 PM 49.5°F9.7°C 46.0°F7.8°C 88% 6.0 mph E9.7 kmh E 11.0 mph17.7 kmh 29.77 in1008.1 mb 0.00 in0.0 mm 0.00 in0.0 mm 0.00 in0.0 mm
12:36 PM 49.3°F9.6°C 45.9°F7.7°C 88% 7.0 mph E11.3 kmh E 11.0 mph17.7 kmh 29.77 in1008.1 mb 0.00 in0.0 mm 0.00 in0.0 mm 0.00 in0.0 mm
12:39 PM 49.3°F9.6°C 46.2°F7.9°C 89% 7.0 mph E11.3 kmh E 10.0 mph16.1 kmh 29.76 in1007.8 mb 0.00 in0.0 mm 0.00 in0.0 mm 0.00 in0.0 mm
12:42 PM 49.3°F9.6°C 46.2°F7.9°C 89% 7.0 mph E11.3 kmh E 10.0 mph16.1 kmh 29.76 in1007.8 mb 0.00 in0.0 mm 0.00 in0.0 mm 0.00 in0.0 mm
12:45 PM 49.3°F9.6°C 46.0°F7.8°C 89% 7.0 mph E11.3 kmh E 10.0 mph16.1 kmh 29.76 in1007.8 mb 0.00 in0.0 mm 0.00 in0.0 mm 0.00 in0.0 mm
12:48 PM 49.3°F9.6°C 46.0°F7.8°C 89% 7.0 mph E11.3 kmh E 10.0 mph16.1 kmh 29.76 in1007.8 mb 0.00 in0.0 mm 0.00 in0.0 mm 0.00 in0.0 mm
12:51 PM 49.3°F9.6°C 46.0°F7.8°C 89% 6.0 mph E9.7 kmh E 10.0 mph16.1 kmh 29.76 in1007.8 mb 0.00 in0.0 mm 0.00 in0.0 mm 0.00 in0.0 mm
12:54 PM 49.3°F9.6°C 46.2°F7.9°C 89% 6.0 mph E9.7 kmh E 10.0 mph16.1 kmh 29.76 in1007.8 mb 0.00 in0.0 mm 0.00 in0.0 mm 0.00 in0.0 mm
12:57 PM 49.3°F9.6°C 46.6°F8.1°C 90% 6.0 mph E9.7 kmh E 10.0 mph16.1 kmh 29.76 in1007.8 mb 0.00 in0.0 mm 0.00 in0.0 mm 0.00 in0.0 mm
01:00 PM 49.5°F9.7°C 46.6°F8.1°C 90% 5.0 mph E8.0 kmh E 8.0 mph12.9 kmh 29.76 in1007.8 mb 0.00 in0.0 mm 0.00 in0.0 mm 0.00 in0.0 mm
01:03 PM 49.5°F9.7°C 46.8°F8.2°C 90% 4.0 mph E6.4 kmh E 8.0 mph12.9 kmh 29.76 in1007.8 mb 0.00 in0.0 mm 0.00 in0.0 mm 0.00 in0.0 mm
01:06 PM 49.5°F9.7°C 46.8°F8.2°C 90% 4.0 mph E6.4 kmh E 8.0 mph12.9 kmh 29.76 in1007.8 mb 0.00 in0.0 mm 0.00 in0.0 mm 0.00 in0.0 mm
01:09 PM 49.6°F9.8°C 46.8°F8.2°C 90% 4.0 mph E6.4 kmh E 7.0 mph11.3 kmh 29.75 in1007.5 mb 0.00 in0.0 mm 0.00 in0.0 mm 0.00 in0.0 mm
01:12 PM 49.8°F9.9°C 47.1°F8.4°C 90% 4.0 mph E6.4 kmh E 7.0 mph11.3 kmh 29.75 in1007.5 mb 0.00 in0.0 mm 0.00 in0.0 mm 0.00 in0.0 mm
01:15 PM 50.2°F10.1°C 47.3°F8.5°C 90% 4.0 mph E6.4 kmh E 7.0 mph11.3 kmh 29.75 in1007.5 mb 0.00 in0.0 mm 0.00 in0.0 mm 0.00 in0.0 mm
01:18 PM 50.2°F10.1°C 47.3°F8.5°C 90% 4.0 mph E6.4 kmh E 7.0 mph11.3 kmh 29.75 in1007.5 mb 0.00 in0.0 mm 0.00 in0.0 mm 0.00 in0.0 mm
01:21 PM 50.4°F10.2°C 47.5°F8.6°C 90% 4.0 mph ESE6.4 kmh ESE 8.0 mph12.9 kmh 29.75 in1007.5 mb 0.00 in0.0 mm 0.00 in0.0 mm 0.00 in0.0 mm
01:24 PM 50.4°F10.2°C 47.7°F8.7°C 90% 4.0 mph ESE6.4 kmh ESE 8.0 mph12.9 kmh 29.75 in1007.5 mb 0.00 in0.0 mm 0.00 in0.0 mm 0.00 in0.0 mm
01:27 PM 50.4°F10.2°C 47.7°F8.7°C 90% 3.0 mph ESE4.8 kmh ESE 8.0 mph12.9 kmh 29.75 in1007.5 mb 0.00 in0.0 mm 0.00 in0.0 mm 0.00 in0.0 mm
01:30 PM 50.4°F10.2°C 47.7°F8.7°C 90% 3.0 mph E4.8 kmh E 7.0 mph11.3 kmh 29.75 in1007.5 mb 0.00 in0.0 mm 0.00 in0.0 mm 0.00 in0.0 mm
01:33 PM 50.2°F10.1°C 47.1°F8.4°C 89% 4.0 mph E6.4 kmh E 8.0 mph12.9 kmh 29.75 in1007.5 mb 0.00 in0.0 mm 0.00 in0.0 mm 0.00 in0.0 mm
01:36 PM 50.2°F10.1°C 47.3°F8.5°C 90% 4.0 mph E6.4 kmh E 8.0 mph12.9 kmh 29.75 in1007.5 mb 0.00 in0.0 mm 0.00 in0.0 mm 0.00 in0.0 mm
01:39 PM 50.2°F10.1°C 47.3°F8.5°C 90% 3.0 mph E4.8 kmh E 8.0 mph12.9 kmh 29.74 in1007.1 mb 0.00 in0.0 mm 0.00 in0.0 mm 0.00 in0.0 mm
01:42 PM 50.2°F10.1°C 47.3°F8.5°C 90% 3.0 mph E4.8 kmh E 8.0 mph12.9 kmh 29.74 in1007.1 mb 0.00 in0.0 mm 0.00 in0.0 mm 0.00 in0.0 mm
01:45 PM 50.2°F10.1°C 47.3°F8.5°C 90% 3.0 mph ESE4.8 kmh ESE 8.0 mph12.9 kmh 29.74 in1007.1 mb 0.00 in0.0 mm 0.00 in0.0 mm 0.00 in0.0 mm
01:48 PM 50.4°F10.2°C 47.7°F8.7°C 90% 3.0 mph ESE4.8 kmh ESE 8.0 mph12.9 kmh 29.74 in1007.1 mb 0.00 in0.0 mm 0.00 in0.0 mm 0.00 in0.0 mm
01:51 PM 50.5°F10.3°C 48.0°F8.9°C 91% 2.0 mph E3.2 kmh E 6.0 mph9.7 kmh 29.74 in1007.1 mb 0.00 in0.0 mm 0.00 in0.0 mm 0.00 in0.0 mm
01:54 PM 50.5°F10.3°C 47.8°F8.8°C 90% 3.0 mph E4.8 kmh E 6.0 mph9.7 kmh 29.74 in1007.1 mb 0.00 in0.0 mm 0.00 in0.0 mm 0.00 in0.0 mm
01:57 PM 50.7°F10.4°C 47.8°F8.8°C 90% 3.0 mph E4.8 kmh E 6.0 mph9.7 kmh 29.73 in1006.8 mb 0.00 in0.0 mm 0.00 in0.0 mm 0.00 in0.0 mm
02:00 PM 50.7°F10.4°C 47.8°F8.8°C 90% 3.0 mph E4.8 kmh E 6.0 mph9.7 kmh 29.73 in1006.8 mb 0.00 in0.0 mm 0.00 in0.0 mm 0.00 in0.0 mm
02:03 PM 50.7°F10.4°C 47.8°F8.8°C 90% 3.0 mph E4.8 kmh E 6.0 mph9.7 kmh 29.73 in1006.8 mb 0.00 in0.0 mm 0.00 in0.0 mm 0.00 in0.0 mm
02:06 PM 50.7°F10.4°C 47.8°F8.8°C 90% 3.0 mph ESE4.8 kmh ESE 6.0 mph9.7 kmh 29.73 in1006.8 mb 0.00 in0.0 mm 0.00 in0.0 mm 0.00 in0.0 mm
02:09 PM 50.7°F10.4°C 47.8°F8.8°C 90% 3.0 mph ESE4.8 kmh ESE 6.0 mph9.7 kmh 29.73 in1006.8 mb 0.00 in0.0 mm 0.00 in0.0 mm 0.00 in0.0 mm
02:12 PM 50.7°F10.4°C 47.8°F8.8°C 90% 3.0 mph ESE4.8 kmh ESE 6.0 mph9.7 kmh 29.73 in1006.8 mb 0.00 in0.0 mm 0.00 in0.0 mm 0.00 in0.0 mm
02:15 PM 50.7°F10.4°C 47.7°F8.7°C 89% 3.0 mph ESE4.8 kmh ESE 6.0 mph9.7 kmh 29.73 in1006.8 mb 0.00 in0.0 mm 0.00 in0.0 mm 0.00 in0.0 mm
02:18 PM 50.7°F10.4°C 47.8°F8.8°C 90% 3.0 mph ESE4.8 kmh ESE 6.0 mph9.7 kmh 29.73 in1006.8 mb 0.00 in0.0 mm 0.00 in0.0 mm 0.00 in0.0 mm
02:21 PM 50.5°F10.3°C 47.8°F8.8°C 90% 3.0 mph ESE4.8 kmh ESE 6.0 mph9.7 kmh 29.73 in1006.8 mb 0.00 in0.0 mm 0.00 in0.0 mm 0.00 in0.0 mm
02:24 PM 50.5°F10.3°C 47.3°F8.5°C 89% 3.0 mph ESE4.8 kmh ESE 6.0 mph9.7 kmh 29.73 in1006.8 mb 0.00 in0.0 mm 0.00 in0.0 mm 0.00 in0.0 mm
02:27 PM 50.5°F10.3°C 47.7°F8.7°C 90% 3.0 mph ESE4.8 kmh ESE 6.0 mph9.7 kmh 29.73 in1006.8 mb 0.00 in0.0 mm 0.00 in0.0 mm 0.00 in0.0 mm
02:30 PM 50.4°F10.2°C 47.7°F8.7°C 90% 2.0 mph ESE3.2 kmh ESE 6.0 mph9.7 kmh 29.73 in1006.8 mb 0.00 in0.0 mm 0.00 in0.0 mm 0.00 in0.0 mm
02:33 PM 50.4°F10.2°C 47.7°F8.7°C 90% 2.0 mph E3.2 kmh E 6.0 mph9.7 kmh 29.72 in1006.4 mb 0.00 in0.0 mm 0.00 in0.0 mm 0.00 in0.0 mm
02:36 PM 50.4°F10.2°C 47.7°F8.7°C 90% 3.0 mph E4.8 kmh E 6.0 mph9.7 kmh 29.73 in1006.8 mb 0.00 in0.0 mm 0.00 in0.0 mm 0.00 in0.0 mm
02:39 PM 50.4°F10.2°C 47.7°F8.7°C 90% 3.0 mph E4.8 kmh E 6.0 mph9.7 kmh 29.73 in1006.8 mb 0.00 in0.0 mm 0.00 in0.0 mm 0.00 in0.0 mm
02:42 PM 50.4°F10.2°C 47.7°F8.7°C 90% 3.0 mph E4.8 kmh E 6.0 mph9.7 kmh 29.72 in1006.4 mb 0.00 in0.0 mm 0.00 in0.0 mm 0.00 in0.0 mm
02:45 PM 50.4°F10.2°C 47.7°F8.7°C 90% 3.0 mph E4.8 kmh E 6.0 mph9.7 kmh 29.72 in1006.4 mb 0.00 in0.0 mm 0.00 in0.0 mm 0.00 in0.0 mm
02:48 PM 50.4°F10.2°C 47.7°F8.7°C 90% 3.0 mph E4.8 kmh E 6.0 mph9.7 kmh 29.72 in1006.4 mb 0.00 in0.0 mm 0.00 in0.0 mm 0.00 in0.0 mm
02:51 PM 50.4°F10.2°C 47.7°F8.7°C 90% 2.0 mph ESE3.2 kmh ESE 6.0 mph9.7 kmh 29.72 in1006.4 mb 0.00 in0.0 mm 0.00 in0.0 mm 0.00 in0.0 mm
02:54 PM 50.4°F10.2°C 47.7°F8.7°C 90% 2.0 mph ESE3.2 kmh ESE 4.0 mph6.4 kmh 29.72 in1006.4 mb 0.00 in0.0 mm 0.00 in0.0 mm 0.00 in0.0 mm
02:57 PM 50.4°F10.2°C 47.5°F8.6°C 90% 2.0 mph ESE3.2 kmh ESE 4.0 mph6.4 kmh 29.72 in1006.4 mb 0.00 in0.0 mm 0.00 in0.0 mm 0.00 in0.0 mm
03:00 PM 50.4°F10.2°C 47.5°F8.6°C 90% 2.0 mph ESE3.2 kmh ESE 4.0 mph6.4 kmh 29.72 in1006.4 mb 0.00 in0.0 mm 0.00 in0.0 mm 0.00 in0.0 mm
03:03 PM 50.4°F10.2°C 47.5°F8.6°C 90% 2.0 mph ESE3.2 kmh ESE 4.0 mph6.4 kmh 29.72 in1006.4 mb 0.00 in0.0 mm 0.00 in0.0 mm 0.00 in0.0 mm
03:06 PM 50.4°F10.2°C 47.8°F8.8°C 91% 2.0 mph ESE3.2 kmh ESE 4.0 mph6.4 kmh 29.72 in1006.4 mb 0.00 in0.0 mm 0.00 in0.0 mm 0.00 in0.0 mm
03:09 PM 50.4°F10.2°C 47.8°F8.8°C 91% 2.0 mph ESE3.2 kmh ESE 5.0 mph8.0 kmh 29.72 in1006.4 mb 0.00 in0.0 mm 0.00 in0.0 mm 0.00 in0.0 mm
03:12 PM 50.4°F10.2°C 47.8°F8.8°C 91% 3.0 mph ESE4.8 kmh ESE 5.0 mph8.0 kmh 29.72 in1006.4 mb 0.00 in0.0 mm 0.00 in0.0 mm 0.00 in0.0 mm
03:15 PM 50.4°F10.2°C 47.8°F8.8°C 91% 3.0 mph ESE4.8 kmh ESE 6.0 mph9.7 kmh 29.72 in1006.4 mb 0.00 in0.0 mm 0.00 in0.0 mm 0.00 in0.0 mm
03:18 PM 50.4°F10.2°C 47.8°F8.8°C 91% 2.0 mph SE3.2 kmh SE 6.0 mph9.7 kmh 29.72 in1006.4 mb 0.00 in0.0 mm 0.00 in0.0 mm 0.00 in0.0 mm
03:21 PM 50.4°F10.2°C 47.8°F8.8°C 91% 3.0 mph SE4.8 kmh SE 6.0 mph9.7 kmh 29.72 in1006.4 mb 0.00 in0.0 mm 0.00 in0.0 mm 0.00 in0.0 mm
03:24 PM 50.4°F10.2°C 47.8°F8.8°C 91% 3.0 mph SE4.8 kmh SE 4.0 mph6.4 kmh 29.72 in1006.4 mb 0.00 in0.0 mm 0.00 in0.0 mm 0.00 in0.0 mm
03:27 PM 50.4°F10.2°C 47.8°F8.8°C 91% 3.0 mph SE4.8 kmh SE 4.0 mph6.4 kmh 29.72 in1006.4 mb 0.00 in0.0 mm 0.00 in0.0 mm 0.00 in0.0 mm
03:30 PM 50.4°F10.2°C 47.8°F8.8°C 91% 3.0 mph SE4.8 kmh SE 5.0 mph8.0 kmh 29.72 in1006.4 mb 0.00 in0.0 mm 0.00 in0.0 mm 0.00 in0.0 mm
03:33 PM 50.4°F10.2°C 47.8°F8.8°C 91% 3.0 mph SE4.8 kmh SE 5.0 mph8.0 kmh 29.72 in1006.4 mb 0.00 in0.0 mm 0.00 in0.0 mm 0.00 in0.0 mm
03:36 PM 50.5°F10.3°C 48.0°F8.9°C 91% 3.0 mph SE4.8 kmh SE 5.0 mph8.0 kmh 29.72 in1006.4 mb 0.00 in0.0 mm 0.00 in0.0 mm 0.00 in0.0 mm
03:39 PM 50.5°F10.3°C 48.0°F8.9°C 91% 3.0 mph SE4.8 kmh SE 6.0 mph9.7 kmh 29.72 in1006.4 mb 0.00 in0.0 mm 0.00 in0.0 mm 0.00 in0.0 mm
03:42 PM 50.5°F10.3°C 48.0°F8.9°C 91% 3.0 mph SE4.8 kmh SE 6.0 mph9.7 kmh 29.72 in1006.4 mb 0.00 in0.0 mm 0.00 in0.0 mm 0.00 in0.0 mm
03:45 PM 50.5°F10.3°C 48.0°F8.9°C 91% 3.0 mph SE4.8 kmh SE 6.0 mph9.7 kmh 29.72 in1006.4 mb 0.00 in0.0 mm 0.00 in0.0 mm 0.00 in0.0 mm
03:48 PM 50.5°F10.3°C 48.0°F8.9°C 91% 2.0 mph SE3.2 kmh SE 5.0 mph8.0 kmh 29.72 in1006.4 mb 0.00 in0.0 mm 0.00 in0.0 mm 0.00 in0.0 mm
03:51 PM 50.4°F10.2°C 47.8°F8.8°C 91% 2.0 mph SE3.2 kmh SE 5.0 mph8.0 kmh 29.72 in1006.4 mb 0.00 in0.0 mm 0.00 in0.0 mm 0.00 in0.0 mm
03:54 PM 50.4°F10.2°C 47.8°F8.8°C 91% 2.0 mph SE3.2 kmh SE 5.0 mph8.0 kmh 29.71 in1006.1 mb 0.00 in0.0 mm 0.00 in0.0 mm 0.00 in0.0 mm
03:57 PM 50.4°F10.2°C 47.8°F8.8°C 91% 2.0 mph ESE3.2 kmh ESE 5.0 mph8.0 kmh 29.71 in1006.1 mb 0.00 in0.0 mm 0.00 in0.0 mm 0.00 in0.0 mm
04:00 PM 50.2°F10.1°C 47.7°F8.7°C 91% 2.0 mph ESE3.2 kmh ESE 5.0 mph8.0 kmh 29.71 in1006.1 mb 0.00 in0.0 mm 0.00 in0.0 mm 0.00 in0.0 mm
04:03 PM 50.2°F10.1°C 47.7°F8.7°C 91% 2.0 mph ESE3.2 kmh ESE 5.0 mph8.0 kmh 29.71 in1006.1 mb 0.00 in0.0 mm 0.00 in0.0 mm 0.00 in0.0 mm
04:06 PM 50.0°F10.0°C 47.5°F8.6°C 91% 2.0 mph ESE3.2 kmh ESE 4.0 mph6.4 kmh 29.71 in1006.1 mb 0.00 in0.0 mm 0.00 in0.0 mm 0.00 in0.0 mm
04:09 PM 50.0°F10.0°C 47.5°F8.6°C 91% 2.0 mph ESE3.2 kmh ESE 4.0 mph6.4 kmh 29.71 in1006.1 mb 0.00 in0.0 mm 0.00 in0.0 mm 0.00 in0.0 mm
04:12 PM 49.8°F9.9°C 48.6°F9.2°C 95% 2.0 mph ESE3.2 kmh ESE 3.0 mph4.8 kmh 29.71 in1006.1 mb 0.00 in0.0 mm 0.00 in0.0 mm 0.00 in0.0 mm
04:15 PM 49.8°F9.9°C 47.3°F8.5°C 91% 2.0 mph ESE3.2 kmh ESE 3.0 mph4.8 kmh 29.71 in1006.1 mb 0.00 in0.0 mm 0.00 in0.0 mm 0.00 in0.0 mm
04:18 PM 49.8°F9.9°C 47.5°F8.6°C 92% 2.0 mph ESE3.2 kmh ESE 3.0 mph4.8 kmh 29.71 in1006.1 mb 0.00 in0.0 mm 0.00 in0.0 mm 0.00 in0.0 mm
04:21 PM 49.6°F9.8°C 47.5°F8.6°C 92% 2.0 mph ESE3.2 kmh ESE 4.0 mph6.4 kmh 29.71 in1006.1 mb 0.01 in0.3 mm 0.20 in5.1 mm 0.01 in0.3 mm
04:24 PM 49.6°F9.8°C 47.3°F8.5°C 92% 2.0 mph ESE3.2 kmh ESE 4.0 mph6.4 kmh 29.71 in1006.1 mb 0.01 in0.3 mm 0.00 in0.0 mm 0.01 in0.3 mm
04:27 PM 49.6°F9.8°C 47.3°F8.5°C 92% 2.0 mph ESE3.2 kmh ESE 4.0 mph6.4 kmh 29.71 in1006.1 mb 0.01 in0.3 mm 0.00 in0.0 mm 0.01 in0.3 mm
04:30 PM 49.5°F9.7°C 47.3°F8.5°C 92% 2.0 mph ESE3.2 kmh ESE 7.0 mph11.3 kmh 29.71 in1006.1 mb 0.01 in0.3 mm 0.00 in0.0 mm 0.01 in0.3 mm
04:33 PM 49.5°F9.7°C 47.1°F8.4°C 92% 3.0 mph E4.8 kmh E 7.0 mph11.3 kmh 29.71 in1006.1 mb 0.01 in0.3 mm 0.00 in0.0 mm 0.01 in0.3 mm
04:36 PM 49.3°F9.6°C 47.1°F8.4°C 92% 3.0 mph E4.8 kmh E 7.0 mph11.3 kmh 29.71 in1006.1 mb 0.01 in0.3 mm 0.00 in0.0 mm 0.01 in0.3 mm
04:39 PM 49.1°F9.5°C 46.9°F8.3°C 92% 4.0 mph E6.4 kmh E 8.0 mph12.9 kmh 29.71 in1006.1 mb 0.02 in0.5 mm 0.20 in5.1 mm 0.02 in0.5 mm
04:42 PM 49.1°F9.5°C 47.1°F8.4°C 93% 4.0 mph E6.4 kmh E 8.0 mph12.9 kmh 29.71 in1006.1 mb 0.02 in0.5 mm 0.00 in0.0 mm 0.02 in0.5 mm
04:45 PM 48.9°F9.4°C 46.9°F8.3°C 93% 3.0 mph E4.8 kmh E 8.0 mph12.9 kmh 29.71 in1006.1 mb 0.02 in0.5 mm 0.00 in0.0 mm 0.02 in0.5 mm
04:48 PM 48.9°F9.4°C 46.9°F8.3°C 93% 3.0 mph E4.8 kmh E 7.0 mph11.3 kmh 29.71 in1006.1 mb 0.02 in0.5 mm 0.00 in0.0 mm 0.02 in0.5 mm
04:51 PM 48.9°F9.4°C 46.9°F8.3°C 93% 2.0 mph E3.2 kmh E 6.0 mph9.7 kmh 29.71 in1006.1 mb 0.02 in0.5 mm 0.00 in0.0 mm 0.02 in0.5 mm
04:54 PM 48.9°F9.4°C 46.9°F8.3°C 93% 2.0 mph E3.2 kmh E 4.0 mph6.4 kmh 29.71 in1006.1 mb 0.02 in0.5 mm 0.00 in0.0 mm 0.02 in0.5 mm
04:57 PM 48.7°F9.3°C 46.9°F8.3°C 93% 2.0 mph E3.2 kmh E 4.0 mph6.4 kmh 29.71 in1006.1 mb 0.02 in0.5 mm 0.00 in0.0 mm 0.02 in0.5 mm
05:00 PM 48.7°F9.3°C 46.9°F8.3°C 93% 1.0 mph E1.6 kmh E 3.0 mph4.8 kmh 29.71 in1006.1 mb 0.02 in0.5 mm 0.00 in0.0 mm 0.02 in0.5 mm
05:03 PM 48.7°F9.3°C 46.8°F8.2°C 93% 2.0 mph E3.2 kmh E 6.0 mph9.7 kmh 29.71 in1006.1 mb 0.02 in0.5 mm 0.00 in0.0 mm 0.02 in0.5 mm
05:06 PM 48.7°F9.3°C 46.8°F8.2°C 93% 2.0 mph E3.2 kmh E 6.0 mph9.7 kmh 29.71 in1006.1 mb 0.02 in0.5 mm 0.00 in0.0 mm 0.02 in0.5 mm
05:09 PM 48.7°F9.3°C 46.8°F8.2°C 93% 2.0 mph E3.2 kmh E 6.0 mph9.7 kmh 29.71 in1006.1 mb 0.02 in0.5 mm 0.00 in0.0 mm 0.02 in0.5 mm
05:12 PM 48.6°F9.2°C 46.6°F8.1°C 93% 2.0 mph E3.2 kmh E 4.0 mph6.4 kmh 29.71 in1006.1 mb 0.02 in0.5 mm 0.00 in0.0 mm 0.02 in0.5 mm
05:15 PM 48.6°F9.2°C 46.9°F8.3°C 94% 2.0 mph E3.2 kmh E 4.0 mph6.4 kmh 29.71 in1006.1 mb 0.02 in0.5 mm 0.00 in0.0 mm 0.02 in0.5 mm
05:18 PM 48.6°F9.2°C 46.9°F8.3°C 94% 2.0 mph E3.2 kmh E 8.0 mph12.9 kmh 29.71 in1006.1 mb 0.02 in0.5 mm 0.00 in0.0 mm 0.02 in0.5 mm
05:21 PM 48.6°F9.2°C 46.9°F8.3°C 94% 3.0 mph E4.8 kmh E 8.0 mph12.9 kmh 29.71 in1006.1 mb 0.01 in0.3 mm 0.00 in0.0 mm 0.02 in0.5 mm
05:24 PM 48.6°F9.2°C 46.9°F8.3°C 94% 5.0 mph E8.0 kmh E 11.0 mph17.7 kmh 29.71 in1006.1 mb 0.01 in0.3 mm 0.00 in0.0 mm 0.02 in0.5 mm
05:27 PM 48.6°F9.2°C 46.9°F8.3°C 94% 7.0 mph E11.3 kmh E 12.0 mph19.3 kmh 29.70 in1005.8 mb 0.01 in0.3 mm 0.00 in0.0 mm 0.02 in0.5 mm
05:30 PM 48.6°F9.2°C 46.9°F8.3°C 94% 7.0 mph E11.3 kmh E 12.0 mph19.3 kmh 29.70 in1005.8 mb 0.01 in0.3 mm 0.00 in0.0 mm 0.02 in0.5 mm
05:33 PM 47.8°F8.8°C 45.9°F7.7°C 93% 8.0 mph E12.9 kmh E 12.0 mph19.3 kmh 29.70 in1005.8 mb 0.01 in0.3 mm 0.00 in0.0 mm 0.02 in0.5 mm
05:36 PM 47.7°F8.7°C 46.0°F7.8°C 94% 8.0 mph E12.9 kmh E 12.0 mph19.3 kmh 29.71 in1006.1 mb 0.01 in0.3 mm 0.00 in0.0 mm 0.02 in0.5 mm
05:39 PM 47.7°F8.7°C 46.0°F7.8°C 94% 7.0 mph E11.3 kmh E 12.0 mph19.3 kmh 29.70 in1005.8 mb 0.00 in0.0 mm 0.00 in0.0 mm 0.02 in0.5 mm
05:42 PM 47.5°F8.6°C 45.9°F7.7°C 94% 6.0 mph E9.7 kmh E 11.0 mph17.7 kmh 29.71 in1006.1 mb 0.00 in0.0 mm 0.00 in0.0 mm 0.02 in0.5 mm
05:45 PM 47.5°F8.6°C 45.7°F7.6°C 94% 6.0 mph E9.7 kmh E 11.0 mph17.7 kmh 29.71 in1006.1 mb 0.00 in0.0 mm 0.00 in0.0 mm 0.02 in0.5 mm
05:48 PM 47.5°F8.6°C 45.7°F7.6°C 94% 6.0 mph E9.7 kmh E 11.0 mph17.7 kmh 29.71 in1006.1 mb 0.00 in0.0 mm 0.00 in0.0 mm 0.02 in0.5 mm
05:51 PM 47.3°F8.5°C 45.7°F7.6°C 94% 5.0 mph E8.0 kmh E 9.0 mph14.5 kmh 29.71 in1006.1 mb 0.00 in0.0 mm 0.00 in0.0 mm 0.02 in0.5 mm
05:54 PM 47.5°F8.6°C 45.7°F7.6°C 94% 5.0 mph E8.0 kmh E 9.0 mph14.5 kmh 29.70 in1005.8 mb 0.00 in0.0 mm 0.00 in0.0 mm 0.02 in0.5 mm
05:57 PM 47.5°F8.6°C 45.7°F7.6°C 94% 4.0 mph E6.4 kmh E 9.0 mph14.5 kmh 29.71 in1006.1 mb 0.01 in0.3 mm 0.20 in5.1 mm 0.02 in0.5 mm
06:00 PM 47.3°F8.5°C 45.7°F7.6°C 94% 4.0 mph E6.4 kmh E 7.0 mph11.3 kmh 29.70 in1005.8 mb 0.01 in0.3 mm 0.00 in0.0 mm 0.02 in0.5 mm
06:03 PM 47.3°F8.5°C 45.7°F7.6°C 94% 4.0 mph E6.4 kmh E 11.0 mph17.7 kmh 29.71 in1006.1 mb 0.01 in0.3 mm 0.00 in0.0 mm 0.02 in0.5 mm
06:06 PM 47.1°F8.4°C 45.5°F7.5°C 94% 5.0 mph E8.0 kmh E 11.0 mph17.7 kmh 29.70 in1005.8 mb 0.01 in0.3 mm 0.00 in0.0 mm 0.02 in0.5 mm
06:09 PM 47.1°F8.4°C 45.5°F7.5°C 94% 5.0 mph E8.0 kmh E 11.0 mph17.7 kmh 29.70 in1005.8 mb 0.01 in0.3 mm 0.00 in0.0 mm 0.02 in0.5 mm
06:12 PM 46.9°F8.3°C 45.3°F7.4°C 94% 5.0 mph E8.0 kmh E 11.0 mph17.7 kmh 29.70 in1005.8 mb 0.01 in0.3 mm 0.00 in0.0 mm 0.02 in0.5 mm
06:15 PM 46.9°F8.3°C 45.3°F7.4°C 94% 4.0 mph E6.4 kmh E 8.0 mph12.9 kmh 29.71 in1006.1 mb 0.02 in0.5 mm 0.20 in5.1 mm 0.03 in0.8 mm
06:18 PM 46.9°F8.3°C 45.3°F7.4°C 94% 4.0 mph E6.4 kmh E 8.0 mph12.9 kmh 29.70 in1005.8 mb 0.02 in0.5 mm 0.00 in0.0 mm 0.03 in0.8 mm
06:21 PM 46.9°F8.3°C 45.3°F7.4°C 94% 4.0 mph E6.4 kmh E 8.0 mph12.9 kmh 29.70 in1005.8 mb 0.02 in0.5 mm 0.00 in0.0 mm 0.03 in0.8 mm
06:24 PM 46.9°F8.3°C 45.3°F7.4°C 94% 4.0 mph E6.4 kmh E 8.0 mph12.9 kmh 29.70 in1005.8 mb 0.02 in0.5 mm 0.00 in0.0 mm 0.03 in0.8 mm
06:27 PM 46.9°F8.3°C 45.3°F7.4°C 94% 4.0 mph E6.4 kmh E 8.0 mph12.9 kmh 29.70 in1005.8 mb 0.02 in0.5 mm 0.00 in0.0 mm 0.03 in0.8 mm
06:30 PM 46.9°F8.3°C 45.3°F7.4°C 94% 5.0 mph E8.0 kmh E 9.0 mph14.5 kmh 29.70 in1005.8 mb 0.02 in0.5 mm 0.00 in0.0 mm 0.03 in0.8 mm
06:33 PM 46.8°F8.2°C 45.1°F7.3°C 94% 5.0 mph E8.0 kmh E 9.0 mph14.5 kmh 29.70 in1005.8 mb 0.02 in0.5 mm 0.00 in0.0 mm 0.03 in0.8 mm
06:36 PM 46.8°F8.2°C 45.1°F7.3°C 94% 5.0 mph E8.0 kmh E 9.0 mph14.5 kmh 29.70 in1005.8 mb 0.02 in0.5 mm 0.00 in0.0 mm 0.03 in0.8 mm
06:39 PM 46.8°F8.2°C 45.1°F7.3°C 94% 4.0 mph E6.4 kmh E 9.0 mph14.5 kmh 29.70 in1005.8 mb 0.02 in0.5 mm 0.00 in0.0 mm 0.03 in0.8 mm
06:42 PM 46.8°F8.2°C 45.1°F7.3°C 94% 3.0 mph E4.8 kmh E 8.0 mph12.9 kmh 29.70 in1005.8 mb 0.02 in0.5 mm 0.00 in0.0 mm 0.03 in0.8 mm
06:45 PM 46.8°F8.2°C 45.1°F7.3°C 94% 3.0 mph E4.8 kmh E 7.0 mph11.3 kmh 29.70 in1005.8 mb 0.02 in0.5 mm 0.00 in0.0 mm 0.03 in0.8 mm
06:48 PM 46.8°F8.2°C 45.1°F7.3°C 94% 3.0 mph E4.8 kmh E 7.0 mph11.3 kmh 29.70 in1005.8 mb 0.02 in0.5 mm 0.00 in0.0 mm 0.03 in0.8 mm
06:51 PM 46.8°F8.2°C 45.1°F7.3°C 94% 3.0 mph E4.8 kmh E 7.0 mph11.3 kmh 29.70 in1005.8 mb 0.02 in0.5 mm 0.00 in0.0 mm 0.03 in0.8 mm
06:54 PM 46.8°F8.2°C 45.1°F7.3°C 94% 4.0 mph E6.4 kmh E 9.0 mph14.5 kmh 29.70 in1005.8 mb 0.01 in0.3 mm 0.00 in0.0 mm 0.03 in0.8 mm
06:57 PM 46.8°F8.2°C 45.1°F7.3°C 94% 3.0 mph E4.8 kmh E 9.0 mph14.5 kmh 29.70 in1005.8 mb 0.01 in0.3 mm 0.00 in0.0 mm 0.03 in0.8 mm
07:00 PM 46.8°F8.2°C 45.1°F7.3°C 94% 3.0 mph E4.8 kmh E 9.0 mph14.5 kmh 29.70 in1005.8 mb 0.01 in0.3 mm 0.00 in0.0 mm 0.03 in0.8 mm
07:03 PM 46.8°F8.2°C 45.1°F7.3°C 94% 2.0 mph E3.2 kmh E 7.0 mph11.3 kmh 29.70 in1005.8 mb 0.01 in0.3 mm 0.00 in0.0 mm 0.03 in0.8 mm
07:06 PM 46.8°F8.2°C 45.3°F7.4°C 95% 2.0 mph E3.2 kmh E 6.0 mph9.7 kmh 29.70 in1005.8 mb 0.01 in0.3 mm 0.00 in0.0 mm 0.03 in0.8 mm
07:09 PM 46.8°F8.2°C 45.3°F7.4°C 95% 2.0 mph E3.2 kmh E 6.0 mph9.7 kmh 29.70 in1005.8 mb 0.01 in0.3 mm 0.00 in0.0 mm 0.03 in0.8 mm
07:12 PM 46.8°F8.2°C 45.3°F7.4°C 95% 2.0 mph E3.2 kmh E 6.0 mph9.7 kmh 29.70 in1005.8 mb 0.01 in0.3 mm 0.00 in0.0 mm 0.03 in0.8 mm
07:15 PM 46.8°F8.2°C 45.3°F7.4°C 95% 3.0 mph E4.8 kmh E 6.0 mph9.7 kmh 29.70 in1005.8 mb 0.00 in0.0 mm 0.00 in0.0 mm 0.03 in0.8 mm
07:18 PM 46.8°F8.2°C 45.3°F7.4°C 95% 3.0 mph E4.8 kmh E 6.0 mph9.7 kmh 29.70 in1005.8 mb 0.00 in0.0 mm 0.00 in0.0 mm 0.03 in0.8 mm
07:21 PM 46.6°F8.1°C 45.0°F7.2°C 94% 3.0 mph E4.8 kmh E 9.0 mph14.5 kmh 29.70 in1005.8 mb 0.00 in0.0 mm 0.00 in0.0 mm 0.03 in0.8 mm
07:24 PM 46.6°F8.1°C 45.0°F7.2°C 94% 4.0 mph E6.4 kmh E 9.0 mph14.5 kmh 29.70 in1005.8 mb 0.00 in0.0 mm 0.00 in0.0 mm 0.03 in0.8 mm
07:27 PM 46.6°F8.1°C 45.0°F7.2°C 94% 6.0 mph E9.7 kmh E 10.0 mph16.1 kmh 29.70 in1005.8 mb 0.00 in0.0 mm 0.00 in0.0 mm 0.03 in0.8 mm
07:30 PM 46.6°F8.1°C 45.0°F7.2°C 94% 6.0 mph E9.7 kmh E 10.0 mph16.1 kmh 29.70 in1005.8 mb 0.00 in0.0 mm 0.00 in0.0 mm 0.03 in0.8 mm
07:33 PM 46.6°F8.1°C 45.0°F7.2°C 94% 6.0 mph E9.7 kmh E 10.0 mph16.1 kmh 29.70 in1005.8 mb 0.00 in0.0 mm 0.00 in0.0 mm 0.03 in0.8 mm
07:36 PM 46.6°F8.1°C 44.8°F7.1°C 94% 5.0 mph E8.0 kmh E 9.0 mph14.5 kmh 29.70 in1005.8 mb 0.00 in0.0 mm 0.00 in0.0 mm 0.03 in0.8 mm
07:39 PM 46.6°F8.1°C 44.8°F7.1°C 94% 4.0 mph E6.4 kmh E 9.0 mph14.5 kmh 29.70 in1005.8 mb 0.00 in0.0 mm 0.00 in0.0 mm 0.03 in0.8 mm
07:42 PM 46.6°F8.1°C 44.8°F7.1°C 94% 4.0 mph E6.4 kmh E 8.0 mph12.9 kmh 29.70 in1005.8 mb 0.00 in0.0 mm 0.00 in0.0 mm 0.03 in0.8 mm
07:45 PM 46.6°F8.1°C 45.1°F7.3°C 95% 4.0 mph E6.4 kmh E 8.0 mph12.9 kmh 29.70 in1005.8 mb 0.00 in0.0 mm 0.00 in0.0 mm 0.03 in0.8 mm
07:48 PM 46.6°F8.1°C 44.8°F7.1°C 94% 4.0 mph E6.4 kmh E 8.0 mph12.9 kmh 29.70 in1005.8 mb 0.00 in0.0 mm 0.00 in0.0 mm 0.03 in0.8 mm
07:51 PM 46.6°F8.1°C 44.8°F7.1°C 94% 5.0 mph E8.0 kmh E 10.0 mph16.1 kmh 29.70 in1005.8 mb 0.00 in0.0 mm 0.00 in0.0 mm 0.03 in0.8 mm
07:54 PM 46.4°F8.0°C 45.0°F7.2°C 95% 4.0 mph E6.4 kmh E 10.0 mph16.1 kmh 29.70 in1005.8 mb 0.00 in0.0 mm 0.00 in0.0 mm 0.03 in0.8 mm
07:57 PM 46.4°F8.0°C 45.0°F7.2°C 95% 4.0 mph E6.4 kmh E 10.0 mph16.1 kmh 29.70 in1005.8 mb 0.00 in0.0 mm 0.00 in0.0 mm 0.03 in0.8 mm
08:00 PM 46.4°F8.0°C 45.0°F7.2°C 95% 3.0 mph E4.8 kmh E 8.0 mph12.9 kmh 29.70 in1005.8 mb 0.00 in0.0 mm 0.00 in0.0 mm 0.03 in0.8 mm
08:03 PM 46.4°F8.0°C 45.0°F7.2°C 95% 2.0 mph ENE3.2 kmh ENE 7.0 mph11.3 kmh 29.70 in1005.8 mb 0.00 in0.0 mm 0.00 in0.0 mm 0.03 in0.8 mm
08:06 PM 46.4°F8.0°C 45.0°F7.2°C 95% 2.0 mph ENE3.2 kmh ENE 4.0 mph6.4 kmh 29.70 in1005.8 mb 0.00 in0.0 mm 0.00 in0.0 mm 0.03 in0.8 mm
08:09 PM 46.2°F7.9°C 45.0°F7.2°C 95% 2.0 mph E3.2 kmh E 7.0 mph11.3 kmh 29.70 in1005.8 mb 0.00 in0.0 mm 0.00 in0.0 mm 0.03 in0.8 mm
08:12 PM 46.2°F7.9°C 45.0°F7.2°C 95% 3.0 mph E4.8 kmh E 8.0 mph12.9 kmh 29.70 in1005.8 mb 0.00 in0.0 mm 0.00 in0.0 mm 0.03 in0.8 mm
08:15 PM 46.2°F7.9°C 45.0°F7.2°C 95% 4.0 mph E6.4 kmh E 8.0 mph12.9 kmh 29.70 in1005.8 mb 0.00 in0.0 mm 0.00 in0.0 mm 0.03 in0.8 mm
08:18 PM 46.2°F7.9°C 44.8°F7.1°C 95% 4.0 mph E6.4 kmh E 8.0 mph12.9 kmh 29.70 in1005.8 mb 0.00 in0.0 mm 0.00 in0.0 mm 0.03 in0.8 mm
08:21 PM 46.2°F7.9°C 45.0°F7.2°C 95% 4.0 mph E6.4 kmh E 8.0 mph12.9 kmh 29.70 in1005.8 mb 0.00 in0.0 mm 0.00 in0.0 mm 0.03 in0.8 mm
08:24 PM 46.2°F7.9°C 44.8°F7.1°C 95% 3.0 mph E4.8 kmh E 8.0 mph12.9 kmh 29.70 in1005.8 mb 0.00 in0.0 mm 0.00 in0.0 mm 0.03 in0.8 mm
08:27 PM 46.2°F7.9°C 44.8°F7.1°C 95% 2.0 mph E3.2 kmh E 8.0 mph12.9 kmh 29.70 in1005.8 mb 0.00 in0.0 mm 0.00 in0.0 mm 0.03 in0.8 mm
08:30 PM 46.2°F7.9°C 44.8°F7.1°C 95% 2.0 mph E3.2 kmh E 4.0 mph6.4 kmh 29.70 in1005.8 mb 0.00 in0.0 mm 0.00 in0.0 mm 0.03 in0.8 mm
08:33 PM 46.2°F7.9°C 44.8°F7.1°C 95% 2.0 mph E3.2 kmh E 4.0 mph6.4 kmh 29.70 in1005.8 mb 0.00 in0.0 mm 0.00 in0.0 mm 0.03 in0.8 mm
08:36 PM 46.2°F7.9°C 44.8°F7.1°C 95% 2.0 mph E3.2 kmh E 6.0 mph9.7 kmh 29.70 in1005.8 mb 0.00 in0.0 mm 0.00 in0.0 mm 0.03 in0.8 mm
08:39 PM 46.2°F7.9°C 44.8°F7.1°C 95% 2.0 mph E3.2 kmh E 7.0 mph11.3 kmh 29.70 in1005.8 mb 0.00 in0.0 mm 0.00 in0.0 mm 0.03 in0.8 mm
08:42 PM 46.2°F7.9°C 44.8°F7.1°C 95% 2.0 mph E3.2 kmh E 7.0 mph11.3 kmh 29.70 in1005.8 mb 0.00 in0.0 mm 0.00 in0.0 mm 0.03 in0.8 mm
08:45 PM 46.2°F7.9°C 44.8°F7.1°C 95% 3.0 mph E4.8 kmh E 8.0 mph12.9 kmh 29.70 in1005.8 mb 0.00 in0.0 mm 0.00 in0.0 mm 0.03 in0.8 mm
08:48 PM 46.2°F7.9°C 44.8°F7.1°C 95% 4.0 mph E6.4 kmh E 9.0 mph14.5 kmh 29.70 in1005.8 mb 0.00 in0.0 mm 0.00 in0.0 mm 0.03 in0.8 mm
08:51 PM 46.2°F7.9°C 44.8°F7.1°C 95% 5.0 mph E8.0 kmh E 9.0 mph14.5 kmh 29.70 in1005.8 mb 0.00 in0.0 mm 0.00 in0.0 mm 0.03 in0.8 mm
08:54 PM 46.2°F7.9°C 44.8°F7.1°C 95% 4.0 mph E6.4 kmh E 9.0 mph14.5 kmh 29.70 in1005.8 mb 0.00 in0.0 mm 0.00 in0.0 mm 0.03 in0.8 mm
08:57 PM 46.2°F7.9°C 44.8°F7.1°C 95% 4.0 mph E6.4 kmh E 9.0 mph14.5 kmh 29.70 in1005.8 mb 0.00 in0.0 mm 0.00 in0.0 mm 0.03 in0.8 mm
09:00 PM 46.2°F7.9°C 44.8°F7.1°C 95% 3.0 mph E4.8 kmh E 7.0 mph11.3 kmh 29.70 in1005.8 mb 0.00 in0.0 mm 0.00 in0.0 mm 0.03 in0.8 mm
09:03 PM 46.2°F7.9°C 44.8°F7.1°C 95% 3.0 mph E4.8 kmh E 7.0 mph11.3 kmh 29.69 in1005.4 mb 0.00 in0.0 mm 0.00 in0.0 mm 0.03 in0.8 mm
09:06 PM 46.2°F7.9°C 44.8°F7.1°C 95% 3.0 mph E4.8 kmh E 7.0 mph11.3 kmh 29.69 in1005.4 mb 0.00 in0.0 mm 0.00 in0.0 mm 0.03 in0.8 mm
09:09 PM 46.2°F7.9°C 44.8°F7.1°C 95% 2.0 mph E3.2 kmh E 6.0 mph9.7 kmh 29.69 in1005.4 mb 0.00 in0.0 mm 0.00 in0.0 mm 0.03 in0.8 mm
09:12 PM 46.2°F7.9°C 44.8°F7.1°C 95% 2.0 mph E3.2 kmh E 7.0 mph11.3 kmh 29.69 in1005.4 mb 0.00 in0.0 mm 0.00 in0.0 mm 0.03 in0.8 mm
09:15 PM 46.0°F7.8°C 44.8°F7.1°C 95% 2.0 mph E3.2 kmh E 7.0 mph11.3 kmh 29.69 in1005.4 mb 0.01 in0.3 mm 0.20 in5.1 mm 0.04 in1.0 mm
09:18 PM 46.0°F7.8°C 44.8°F7.1°C 95% 3.0 mph E4.8 kmh E 7.0 mph11.3 kmh 29.69 in1005.4 mb 0.01 in0.3 mm 0.00 in0.0 mm 0.04 in1.0 mm
09:21 PM 46.0°F7.8°C 44.8°F7.1°C 95% 3.0 mph E4.8 kmh E 6.0 mph9.7 kmh 29.69 in1005.4 mb 0.01 in0.3 mm 0.00 in0.0 mm 0.04 in1.0 mm
09:24 PM 46.0°F7.8°C 44.8°F7.1°C 95% 3.0 mph E4.8 kmh E 7.0 mph11.3 kmh 29.69 in1005.4 mb 0.01 in0.3 mm 0.00 in0.0 mm 0.04 in1.0 mm
09:27 PM 46.0°F7.8°C 44.6°F7.0°C 95% 3.0 mph E4.8 kmh E 8.0 mph12.9 kmh 29.69 in1005.4 mb 0.01 in0.3 mm 0.00 in0.0 mm 0.04 in1.0 mm
09:30 PM 46.0°F7.8°C 44.6°F7.0°C 95% 4.0 mph E6.4 kmh E 8.0 mph12.9 kmh 29.69 in1005.4 mb 0.01 in0.3 mm 0.00 in0.0 mm 0.04 in1.0 mm
09:33 PM 46.0°F7.8°C 45.0°F7.2°C 96% 4.0 mph ENE6.4 kmh ENE 8.0 mph12.9 kmh 29.69 in1005.4 mb 0.01 in0.3 mm 0.00 in0.0 mm 0.04 in1.0 mm
09:36 PM 46.0°F7.8°C 45.0°F7.2°C 96% 3.0 mph ENE4.8 kmh ENE 7.0 mph11.3 kmh 29.68 in1005.1 mb 0.01 in0.3 mm 0.00 in0.0 mm 0.04 in1.0 mm
09:39 PM 46.0°F7.8°C 45.0°F7.2°C 96% 3.0 mph ENE4.8 kmh ENE 7.0 mph11.3 kmh 29.69 in1005.4 mb 0.01 in0.3 mm 0.00 in0.0 mm 0.04 in1.0 mm
09:42 PM 46.0°F7.8°C 45.0°F7.2°C 96% 3.0 mph E4.8 kmh E 7.0 mph11.3 kmh 29.68 in1005.1 mb 0.01 in0.3 mm 0.00 in0.0 mm 0.04 in1.0 mm
09:45 PM 46.0°F7.8°C 45.0°F7.2°C 96% 3.0 mph E4.8 kmh E 7.0 mph11.3 kmh 29.68 in1005.1 mb 0.01 in0.3 mm 0.00 in0.0 mm 0.04 in1.0 mm
09:48 PM 46.0°F7.8°C 45.0°F7.2°C 96% 3.0 mph E4.8 kmh E 8.0 mph12.9 kmh 29.68 in1005.1 mb 0.01 in0.3 mm 0.00 in0.0 mm 0.04 in1.0 mm
09:51 PM 46.0°F7.8°C 45.0°F7.2°C 96% 3.0 mph E4.8 kmh E 8.0 mph12.9 kmh 29.68 in1005.1 mb 0.01 in0.3 mm 0.00 in0.0 mm 0.04 in1.0 mm
09:54 PM 46.0°F7.8°C 45.0°F7.2°C 96% 3.0 mph E4.8 kmh E 8.0 mph12.9 kmh 29.68 in1005.1 mb 0.01 in0.3 mm 0.00 in0.0 mm 0.04 in1.0 mm
09:57 PM 46.0°F7.8°C 45.0°F7.2°C 96% 3.0 mph E4.8 kmh E 7.0 mph11.3 kmh 29.68 in1005.1 mb 0.01 in0.3 mm 0.00 in0.0 mm 0.04 in1.0 mm
10:00 PM 46.0°F7.8°C 45.0°F7.2°C 96% 3.0 mph E4.8 kmh E 7.0 mph11.3 kmh 29.68 in1005.1 mb 0.01 in0.3 mm 0.00 in0.0 mm 0.04 in1.0 mm
10:03 PM 46.0°F7.8°C 45.0°F7.2°C 96% 4.0 mph E6.4 kmh E 8.0 mph12.9 kmh 29.68 in1005.1 mb 0.01 in0.3 mm 0.00 in0.0 mm 0.04 in1.0 mm
10:06 PM 46.0°F7.8°C 45.0°F7.2°C 96% 4.0 mph E6.4 kmh E 8.0 mph12.9 kmh 29.68 in1005.1 mb 0.01 in0.3 mm 0.00 in0.0 mm 0.04 in1.0 mm
10:09 PM 46.0°F7.8°C 45.0°F7.2°C 96% 4.0 mph E6.4 kmh E 8.0 mph12.9 kmh 29.68 in1005.1 mb 0.01 in0.3 mm 0.00 in0.0 mm 0.04 in1.0 mm
10:12 PM 46.0°F7.8°C 45.0°F7.2°C 96% 4.0 mph E6.4 kmh E 8.0 mph12.9 kmh 29.68 in1005.1 mb 0.01 in0.3 mm 0.00 in0.0 mm 0.04 in1.0 mm
10:15 PM 46.0°F7.8°C 45.0°F7.2°C 96% 4.0 mph E6.4 kmh E 7.0 mph11.3 kmh 29.68 in1005.1 mb 0.00 in0.0 mm 0.00 in0.0 mm 0.04 in1.0 mm
10:18 PM 46.0°F7.8°C 45.0°F7.2°C 96% 3.0 mph E4.8 kmh E 7.0 mph11.3 kmh 29.68 in1005.1 mb 0.00 in0.0 mm 0.00 in0.0 mm 0.04 in1.0 mm
10:21 PM 46.0°F7.8°C 45.0°F7.2°C 96% 3.0 mph E4.8 kmh E 7.0 mph11.3 kmh 29.68 in1005.1 mb 0.00 in0.0 mm 0.00 in0.0 mm 0.04 in1.0 mm
10:24 PM 46.0°F7.8°C 45.0°F7.2°C 96% 3.0 mph ENE4.8 kmh ENE 7.0 mph11.3 kmh 29.68 in1005.1 mb 0.00 in0.0 mm 0.00 in0.0 mm 0.04 in1.0 mm
10:27 PM 46.0°F7.8°C 45.0°F7.2°C 96% 3.0 mph E4.8 kmh E 7.0 mph11.3 kmh 29.68 in1005.1 mb 0.00 in0.0 mm 0.00 in0.0 mm 0.04 in1.0 mm
10:30 PM 46.0°F7.8°C 45.0°F7.2°C 96% 3.0 mph E4.8 kmh E 7.0 mph11.3 kmh 29.68 in1005.1 mb 0.00 in0.0 mm 0.00 in0.0 mm 0.04 in1.0 mm
10:33 PM 46.0°F7.8°C 45.0°F7.2°C 96% 3.0 mph E4.8 kmh E 7.0 mph11.3 kmh 29.68 in1005.1 mb 0.00 in0.0 mm 0.00 in0.0 mm 0.04 in1.0 mm
10:36 PM 46.0°F7.8°C 45.0°F7.2°C 96% 3.0 mph E4.8 kmh E 7.0 mph11.3 kmh 29.68 in1005.1 mb 0.00 in0.0 mm 0.00 in0.0 mm 0.04 in1.0 mm
10:39 PM 46.0°F7.8°C 45.0°F7.2°C 96% 3.0 mph E4.8 kmh E 9.0 mph14.5 kmh 29.68 in1005.1 mb 0.00 in0.0 mm 0.00 in0.0 mm 0.04 in1.0 mm
10:42 PM 46.0°F7.8°C 45.0°F7.2°C 96% 4.0 mph E6.4 kmh E 9.0 mph14.5 kmh 29.68 in1005.1 mb 0.00 in0.0 mm 0.00 in0.0 mm 0.04 in1.0 mm
10:45 PM 46.0°F7.8°C 45.0°F7.2°C 96% 4.0 mph E6.4 kmh E 9.0 mph14.5 kmh 29.68 in1005.1 mb 0.00 in0.0 mm 0.00 in0.0 mm 0.04 in1.0 mm
10:48 PM 46.0°F7.8°C 45.0°F7.2°C 96% 4.0 mph E6.4 kmh E 9.0 mph14.5 kmh 29.68 in1005.1 mb 0.00 in0.0 mm 0.00 in0.0 mm 0.04 in1.0 mm
10:51 PM 46.0°F7.8°C 45.0°F7.2°C 96% 5.0 mph E8.0 kmh E 11.0 mph17.7 kmh 29.68 in1005.1 mb 0.00 in0.0 mm 0.00 in0.0 mm 0.04 in1.0 mm
10:54 PM 46.0°F7.8°C 45.0°F7.2°C 96% 6.0 mph E9.7 kmh E 11.0 mph17.7 kmh 29.68 in1005.1 mb 0.00 in0.0 mm 0.00 in0.0 mm 0.04 in1.0 mm
10:57 PM 46.0°F7.8°C 45.0°F7.2°C 96% 5.0 mph E8.0 kmh E 11.0 mph17.7 kmh 29.67 in1004.7 mb 0.00 in0.0 mm 0.00 in0.0 mm 0.04 in1.0 mm
11:00 PM 45.9°F7.7°C 44.8°F7.1°C 96% 6.0 mph E9.7 kmh E 13.0 mph20.9 kmh 29.67 in1004.7 mb 0.00 in0.0 mm 0.00 in0.0 mm 0.05 in1.3 mm
11:03 PM 45.9°F7.7°C 44.8°F7.1°C 96% 5.0 mph E8.0 kmh E 13.0 mph20.9 kmh 29.67 in1004.7 mb 0.00 in0.0 mm 0.00 in0.0 mm 0.05 in1.3 mm
11:06 PM 45.9°F7.7°C 44.8°F7.1°C 96% 6.0 mph E9.7 kmh E 13.0 mph20.9 kmh 29.67 in1004.7 mb 0.00 in0.0 mm 0.00 in0.0 mm 0.05 in1.3 mm
11:09 PM 45.9°F7.7°C 44.8°F7.1°C 96% 5.0 mph E8.0 kmh E 11.0 mph17.7 kmh 29.67 in1004.7 mb 0.00 in0.0 mm 0.00 in0.0 mm 0.05 in1.3 mm
11:12 PM 45.9°F7.7°C 44.8°F7.1°C 96% 5.0 mph E8.0 kmh E 11.0 mph17.7 kmh 29.67 in1004.7 mb 0.00 in0.0 mm 0.00 in0.0 mm 0.05 in1.3 mm
11:15 PM 45.9°F7.7°C 44.8°F7.1°C 96% 4.0 mph E6.4 kmh E 9.0 mph14.5 kmh 29.67 in1004.7 mb 0.00 in0.0 mm 0.00 in0.0 mm 0.05 in1.3 mm
11:18 PM 45.9°F7.7°C 44.8°F7.1°C 96% 4.0 mph E6.4 kmh E 9.0 mph14.5 kmh 29.67 in1004.7 mb 0.00 in0.0 mm 0.00 in0.0 mm 0.05 in1.3 mm
11:21 PM 45.9°F7.7°C 44.8°F7.1°C 96% 4.0 mph E6.4 kmh E 9.0 mph14.5 kmh 29.67 in1004.7 mb 0.00 in0.0 mm 0.00 in0.0 mm 0.05 in1.3 mm
11:24 PM 45.9°F7.7°C 44.8°F7.1°C 96% 4.0 mph ENE6.4 kmh ENE 12.0 mph19.3 kmh 29.67 in1004.7 mb 0.00 in0.0 mm 0.00 in0.0 mm 0.05 in1.3 mm
11:27 PM 45.7°F7.6°C 44.6°F7.0°C 96% 5.0 mph ENE8.0 kmh ENE 12.0 mph19.3 kmh 29.67 in1004.7 mb 0.00 in0.0 mm 0.00 in0.0 mm 0.05 in1.3 mm
11:30 PM 45.7°F7.6°C 44.6°F7.0°C 96% 5.0 mph ENE8.0 kmh ENE 12.0 mph19.3 kmh 29.66 in1004.4 mb 0.00 in0.0 mm 0.00 in0.0 mm 0.05 in1.3 mm
11:33 PM 45.7°F7.6°C 44.6°F7.0°C 96% 5.0 mph ENE8.0 kmh ENE 12.0 mph19.3 kmh 29.66 in1004.4 mb 0.00 in0.0 mm 0.00 in0.0 mm 0.05 in1.3 mm
11:36 PM 45.7°F7.6°C 44.6°F7.0°C 96% 4.0 mph ENE6.4 kmh ENE 10.0 mph16.1 kmh 29.66 in1004.4 mb 0.00 in0.0 mm 0.00 in0.0 mm 0.05 in1.3 mm
11:39 PM 45.7°F7.6°C 44.6°F7.0°C 96% 3.0 mph ENE4.8 kmh ENE 10.0 mph16.1 kmh 29.66 in1004.4 mb 0.00 in0.0 mm 0.00 in0.0 mm 0.05 in1.3 mm
11:42 PM 45.7°F7.6°C 44.6°F7.0°C 96% 3.0 mph ENE4.8 kmh ENE 7.0 mph11.3 kmh 29.66 in1004.4 mb 0.00 in0.0 mm 0.00 in0.0 mm 0.05 in1.3 mm
11:45 PM 45.7°F7.6°C 44.6°F7.0°C 96% 3.0 mph E4.8 kmh E 7.0 mph11.3 kmh 29.66 in1004.4 mb 0.00 in0.0 mm 0.00 in0.0 mm 0.05 in1.3 mm
11:48 PM 45.7°F7.6°C 44.6°F7.0°C 96% 3.0 mph E4.8 kmh E 8.0 mph12.9 kmh 29.66 in1004.4 mb 0.00 in0.0 mm 0.00 in0.0 mm 0.05 in1.3 mm
11:51 PM 45.7°F7.6°C 44.6°F7.0°C 96% 4.0 mph E6.4 kmh E 8.0 mph12.9 kmh 29.66 in1004.4 mb 0.00 in0.0 mm 0.00 in0.0 mm 0.05 in1.3 mm
11:54 PM 45.7°F7.6°C 44.6°F7.0°C 96% 4.0 mph E6.4 kmh E 8.0 mph12.9 kmh 29.66 in1004.4 mb 0.00 in0.0 mm 0.00 in0.0 mm 0.05 in1.3 mm
11:57 PM 45.7°F7.6°C 44.6°F7.0°C 96% 3.0 mph E4.8 kmh E 8.0 mph12.9 kmh 29.66 in1004.4 mb 0.00 in0.0 mm 0.00 in0.0 mm 0.05 in1.3 mm